Observation data for Sweetwater on 03/09/2018      Previous  Date  Next       Current Mesonet Observations  Soil Data  Daily Summary Page  Observations in Plain Language
KSW1 090600Z 16015KT 12/M01 A2995 RMK A01 T01231006  RH  041%=      5-min Rain = 0
KSW1 090601Z 17016KT 12/M01 A2995 RMK A01 T01231006  RH  041%=      5-min Rain = 0
KSW1 090602Z 17015KT 12/M01 A2995 RMK A01 T01231007  RH  041%=      5-min Rain = 0
KSW1 090603Z 17015KT 12/M01 A2995 RMK A01 T01221007  RH  041%=      5-min Rain = 0
KSW1 090604Z 16013KT 12/M01 A2995 RMK A01 T01211008  RH  041%=      5-min Rain = 0
KSW1 090605Z 17015KT 12/M01 A2995 RMK A01 T01211008  RH  041%=      5-min Rain = 0
KSW1 090606Z 17016KT 12/M01 A2995 RMK A01 T01201009  RH  041%=      5-min Rain = 0
KSW1 090607Z 17016KT 12/M01 A2995 RMK A01 T01201008  RH  041%=      5-min Rain = 0
KSW1 090608Z 17014KT 12/M01 A2995 RMK A01 T01201008  RH  041%=      5-min Rain = 0
KSW1 090609Z 17014KT 12/M01 A2995 RMK A01 T01201008  RH  041%=      5-min Rain = 0
KSW1 090610Z 17016KT 12/M01 A2995 RMK A01 T01191009  RH  041%=      5-min Rain = 0
KSW1 090611Z 17016KT 12/M01 A2995 RMK A01 T01191008  RH  041%=      5-min Rain = 0
KSW1 090612Z 16015KT 12/M01 A2995 RMK A01 T01191008  RH  041%=      5-min Rain = 0
KSW1 090613Z 17015KT 12/M01 A2995 RMK A01 T01191008  RH  041%=      5-min Rain = 0
KSW1 090614Z 17014KT 12/M01 A2995 RMK A01 T01181008  RH  042%=      5-min Rain = 0
KSW1 090615Z 17015KT 12/M01 A2995 RMK A01 T01181008  RH  042%=      5-min Rain = 0
KSW1 090616Z 17015KT 12/M01 A2995 RMK A01 T01181008  RH  042%=      5-min Rain = 0
KSW1 090617Z 17015KT 12/M01 A2995 RMK A01 T01181008  RH  042%=      5-min Rain = 0
KSW1 090618Z 17015G20KT 12/M01 A2995 RMK A01 T01171007  RH  042%=      5-min Rain = 0
KSW1 090619Z 17016G21KT 12/M01 A2995 RMK A01 T01171007  RH  042%=      5-min Rain = 0
KSW1 090620Z 17014KT 12/M01 A2995 RMK A01 T01171007  RH  042%=      5-min Rain = 0
KSW1 090621Z 17014KT 12/M01 A2995 RMK A01 T01171007  RH  042%=      5-min Rain = 0
KSW1 090622Z 17013KT 12/M01 A2995 RMK A01 T01161007  RH  042%=      5-min Rain = 0
KSW1 090623Z 17015KT 12/M01 A2995 RMK A01 T01161007  RH  043%=      5-min Rain = 0
KSW1 090624Z 17015KT 12/M01 A2994 RMK A01 T01151007  RH  043%=      5-min Rain = 0
KSW1 090625Z 16016KT 12/M01 A2994 RMK A01 T01151007  RH  043%=      5-min Rain = 0
KSW1 090626Z 16015KT 12/M01 A2994 RMK A01 T01161007  RH  043%=      5-min Rain = 0
KSW1 090627Z 16015KT 12/M01 A2994 RMK A01 T01161007  RH  043%=      5-min Rain = 0
KSW1 090628Z 17015KT 12/M01 A2994 RMK A01 T01151007  RH  043%=      5-min Rain = 0
KSW1 090629Z 17015KT 12/M01 A2994 RMK A01 T01151007  RH  043%=      5-min Rain = 0
KSW1 090630Z 17015KT 12/M01 A2994 RMK A01 T01151007  RH  043%=      5-min Rain = 0
KSW1 090631Z 16015KT 12/M01 A2994 RMK A01 T01151007  RH  043%=      5-min Rain = 0
KSW1 090632Z 17016KT 12/M01 A2994 RMK A01 T01151007  RH  043%=      5-min Rain = 0
KSW1 090633Z 16015KT 12/M01 A2994 RMK A01 T01151008  RH  043%=      5-min Rain = 0
KSW1 090634Z 16015KT 11/M01 A2994 RMK A01 T01141008  RH  043%=      5-min Rain = 0
KSW1 090635Z 17014KT 11/M01 A2994 RMK A01 T01141008  RH  043%=      5-min Rain = 0
KSW1 090636Z 17015KT 11/M01 A2994 RMK A01 T01141007  RH  043%=      5-min Rain = 0
KSW1 090637Z 17016KT 11/M01 A2994 RMK A01 T01141007  RH  043%=      5-min Rain = 0
KSW1 090638Z 16016KT 11/M01 A2994 RMK A01 T01141007  RH  043%=      5-min Rain = 0
KSW1 090639Z 16013KT 11/M01 A2994 RMK A01 T01131007  RH  043%=      5-min Rain = 0
KSW1 090640Z 16015KT 11/M01 A2994 RMK A01 T01131008  RH  043%=      5-min Rain = 0
KSW1 090641Z 16013KT 11/M01 A2994 RMK A01 T01121008  RH  043%=      5-min Rain = 0
KSW1 090642Z 16015KT 11/M01 A2994 RMK A01 T01121008  RH  044%=      5-min Rain = 0
KSW1 090643Z 16014KT 11/M01 A2994 RMK A01 T01121007  RH  044%=      5-min Rain = 0
KSW1 090644Z 16016KT 11/M01 A2994 RMK A01 T01111008  RH  044%=      5-min Rain = 0
KSW1 090645Z 16016KT 11/M01 A2994 RMK A01 T01111008  RH  044%=      5-min Rain = 0
KSW1 090646Z 17017KT 11/M01 A2994 RMK A01 T01111008  RH  044%=      5-min Rain = 0
KSW1 090647Z 16015KT 11/M01 A2994 RMK A01 T01111007  RH  044%=      5-min Rain = 0
KSW1 090648Z 16015KT 11/M01 A2994 RMK A01 T01111008  RH  044%=      5-min Rain = 0
KSW1 090649Z 16015KT 11/M01 A2994 RMK A01 T01111008  RH  044%=      5-min Rain = 0
KSW1 090650Z 16016KT 11/M01 A2994 RMK A01 T01111007  RH  044%=      5-min Rain = 0
KSW1 090651Z 16015KT 11/M01 A2994 RMK A01 T01111007  RH  044%=      5-min Rain = 0
KSW1 090652Z 17016KT 11/M01 A2994 RMK A01 T01111007  RH  044%=      5-min Rain = 0
KSW1 090653Z 17015KT 11/M01 A2994 RMK A01 T01111007  RH  044%=      5-min Rain = 0
KSW1 090654Z 17015G20KT 11/M01 A2994 RMK A01 T01111006  RH  044%=      5-min Rain = 0
KSW1 090655Z 17014KT 11/M01 A2994 RMK A01 T01111006  RH  044%=      5-min Rain = 0
KSW1 090656Z 16016KT 11/M01 A2993 RMK A01 T01101006  RH  044%=      5-min Rain = 0
KSW1 090657Z 16015KT 11/M01 A2993 RMK A01 T01111006  RH  045%=      5-min Rain = 0
KSW1 090658Z 16015KT 11/M01 A2993 RMK A01 T01101006  RH  045%=      5-min Rain = 0
KSW1 090659Z 16016G22KT 11/M01 A2993 RMK A01 T01101006  RH  045%=      5-min Rain = 0
KSW1 090700Z 16016KT 11/M01 A2993 RMK A01 T01101006  RH  045%=      5-min Rain = 0
KSW1 090701Z 16015G20KT 11/M01 A2993 RMK A01 T01111005  RH  045%=      5-min Rain = 0
KSW1 090702Z 16014KT 11/M01 A2993 RMK A01 T01111005  RH  045%=      5-min Rain = 0
KSW1 090703Z 17016KT 11/M01 A2993 RMK A01 T01111005  RH  045%=      5-min Rain = 0
KSW1 090704Z 16015KT 11/M01 A2993 RMK A01 T01111005  RH  045%=      5-min Rain = 0
KSW1 090705Z 16015KT 11/M00 A2993 RMK A01 T01111004  RH  045%=      5-min Rain = 0
KSW1 090706Z 16016KT 11/M00 A2993 RMK A01 T01101004  RH  045%=      5-min Rain = 0
KSW1 090707Z 17015KT 11/M00 A2993 RMK A01 T01101004  RH  045%=      5-min Rain = 0
KSW1 090708Z 16016KT 11/M00 A2993 RMK A01 T01101004  RH  045%=      5-min Rain = 0
KSW1 090709Z 16015KT 11/M00 A2993 RMK A01 T01101004  RH  045%=      5-min Rain = 0
KSW1 090710Z 16017KT 11/M00 A2993 RMK A01 T01101004  RH  045%=      5-min Rain = 0
KSW1 090711Z 16015KT 11/M00 A2993 RMK A01 T01101004  RH  045%=      5-min Rain = 0
KSW1 090712Z 16015KT 11/M00 A2993 RMK A01 T01101004  RH  045%=      5-min Rain = 0
KSW1 090713Z 16016KT 11/M00 A2993 RMK A01 T01091004  RH  046%=      5-min Rain = 0
KSW1 090714Z 16015KT 11/M00 A2993 RMK A01 T01091003  RH  046%=      5-min Rain = 0
KSW1 090715Z 17017KT 11/M00 A2993 RMK A01 T01091003  RH  046%=      5-min Rain = 0
KSW1 090716Z 16017KT 11/M00 A2993 RMK A01 T01091002  RH  046%=      5-min Rain = 0
KSW1 090717Z 17016KT 11/M00 A2993 RMK A01 T01091002  RH  046%=      5-min Rain = 0
KSW1 090718Z 16016KT 11/M00 A2993 RMK A01 T01091001  RH  046%=      5-min Rain = 0
KSW1 090719Z 16015KT 11/M00 A2993 RMK A01 T01091002  RH  046%=      5-min Rain = 0
KSW1 090720Z 17015KT 11/M00 A2993 RMK A01 T01091001  RH  047%=      5-min Rain = 0
KSW1 090721Z 16015KT 11/M00 A2993 RMK A01 T01091001  RH  047%=      5-min Rain = 0
KSW1 090722Z 17015KT 11/00 A2993 RMK A01 T01080000  RH  047%=      5-min Rain = 0
KSW1 090723Z 17015KT 11/00 A2993 RMK A01 T010800-0  RH  047%=      5-min Rain = 0
KSW1 090724Z 16015KT 11/00 A2993 RMK A01 T01080000  RH  047%=      5-min Rain = 0
KSW1 090725Z 16015KT 11/00 A2993 RMK A01 T01070002  RH  048%=      5-min Rain = 0
KSW1 090726Z 17015KT 11/00 A2993 RMK A01 T01070002  RH  048%=      5-min Rain = 0
KSW1 090727Z 16013KT 11/00 A2993 RMK A01 T01070002  RH  048%=      5-min Rain = 0
KSW1 090728Z 17013KT 11/00 A2993 RMK A01 T01070003  RH  049%=      5-min Rain = 0
KSW1 090729Z 16014G19KT 11/00 A2993 RMK A01 T01060004  RH  049%=      5-min Rain = 0
KSW1 090730Z 17016KT 11/01 A2993 RMK A01 T01070005  RH  049%=      5-min Rain = 0
KSW1 090731Z 17016KT 11/01 A2993 RMK A01 T01070006  RH  050%=      5-min Rain = 0
KSW1 090732Z 17015KT 11/01 A2993 RMK A01 T01080007  RH  050%=      5-min Rain = 0
KSW1 090733Z 17015KT 11/01 A2993 RMK A01 T01080007  RH  050%=      5-min Rain = 0
KSW1 090734Z 17016KT 11/01 A2993 RMK A01 T01080008  RH  050%=      5-min Rain = 0
KSW1 090735Z 17015KT 11/01 A2993 RMK A01 T01080009  RH  050%=      5-min Rain = 0
KSW1 090736Z 16014KT 11/01 A2993 RMK A01 T01090009  RH  050%=      5-min Rain = 0
KSW1 090737Z 17016KT 11/01 A2993 RMK A01 T01080009  RH  050%=      5-min Rain = 0
KSW1 090738Z 17015KT 11/01 A2993 RMK A01 T01080010  RH  051%=      5-min Rain = 0
KSW1 090739Z 17015G20KT 11/01 A2993 RMK A01 T01080010  RH  051%=      5-min Rain = 0
KSW1 090740Z 17016KT 11/01 A2993 RMK A01 T01090012  RH  051%=      5-min Rain = 0
KSW1 090741Z 17016G21KT 11/01 A2993 RMK A01 T01100013  RH  051%=      5-min Rain = 0
KSW1 090742Z 17015KT 11/01 A2993 RMK A01 T01100013  RH  051%=      5-min Rain = 0
KSW1 090743Z 17016KT 11/01 A2993 RMK A01 T01100013  RH  051%=      5-min Rain = 0
KSW1 090744Z 17017KT 11/01 A2993 RMK A01 T01100013  RH  051%=      5-min Rain = 0
KSW1 090745Z 17017G22KT 11/01 A2992 RMK A01 T01100013  RH  051%=      5-min Rain = 0
KSW1 090746Z 17017KT 11/01 A2992 RMK A01 T01100013  RH  051%=      5-min Rain = 0
KSW1 090747Z 17016KT 11/01 A2992 RMK A01 T01100013  RH  051%=      5-min Rain = 0
KSW1 090748Z 17016KT 11/01 A2992 RMK A01 T01100014  RH  051%=      5-min Rain = 0
KSW1 090749Z 17015KT 11/01 A2992 RMK A01 T01100013  RH  051%=      5-min Rain = 0
KSW1 090750Z 17016KT 11/01 A2992 RMK A01 T01090013  RH  051%=      5-min Rain = 0
KSW1 090751Z 17014G19KT 11/01 A2992 RMK A01 T01090013  RH  052%=      5-min Rain = 0
KSW1 090752Z 17015KT 11/01 A2992 RMK A01 T01080013  RH  052%=      5-min Rain = 0
KSW1 090753Z 17016KT 11/01 A2992 RMK A01 T01080014  RH  052%=      5-min Rain = 0
KSW1 090754Z 17014KT 11/01 A2992 RMK A01 T01080014  RH  052%=      5-min Rain = 0
KSW1 090755Z 17015KT 11/01 A2992 RMK A01 T01070014  RH  052%=      5-min Rain = 0
KSW1 090756Z 17017KT 11/01 A2992 RMK A01 T01070014  RH  053%=      5-min Rain = 0
KSW1 090757Z 17015KT 11/02 A2992 RMK A01 T01070015  RH  053%=      5-min Rain = 0
KSW1 090758Z 17016G22KT 11/02 A2992 RMK A01 T01070015  RH  053%=      5-min Rain = 0
KSW1 090759Z 17015KT 11/02 A2992 RMK A01 T01070016  RH  053%=      5-min Rain = 0
KSW1 090800Z 17013G18KT 11/02 A2992 RMK A01 T01080016  RH  053%=      5-min Rain = 0
KSW1 090801Z 17014G19KT 11/02 A2992 RMK A01 T01070016  RH  053%=      5-min Rain = 0
KSW1 090802Z 17014KT 11/02 A2992 RMK A01 T01060016  RH  054%=      5-min Rain = 0
KSW1 090803Z 17014KT 11/02 A2992 RMK A01 T01060017  RH  054%=      5-min Rain = 0
KSW1 090804Z 17014KT 11/02 A2992 RMK A01 T01060017  RH  054%=      5-min Rain = 0
KSW1 090805Z 17016KT 11/02 A2992 RMK A01 T01060017  RH  054%=      5-min Rain = 0
KSW1 090806Z 17015G21KT 11/02 A2992 RMK A01 T01060017  RH  054%=      5-min Rain = 0
KSW1 090807Z 17016KT 11/02 A2992 RMK A01 T01070017  RH  054%=      5-min Rain = 0
KSW1 090808Z 17016KT 11/02 A2992 RMK A01 T01070017  RH  054%=      5-min Rain = 0
KSW1 090809Z 17016KT 11/02 A2992 RMK A01 T01070018  RH  054%=      5-min Rain = 0
KSW1 090810Z 17015KT 11/02 A2992 RMK A01 T01070018  RH  054%=      5-min Rain = 0
KSW1 090811Z 17015KT 11/02 A2992 RMK A01 T01060018  RH  054%=      5-min Rain = 0
KSW1 090812Z 17016KT 11/02 A2992 RMK A01 T01060018  RH  055%=      5-min Rain = 0
KSW1 090813Z 17014KT 11/02 A2992 RMK A01 T01050018  RH  055%=      5-min Rain = 0
KSW1 090814Z 17015KT 11/02 A2992 RMK A01 T01050018  RH  055%=      5-min Rain = 0
KSW1 090815Z 17015KT 11/02 A2992 RMK A01 T01050018  RH  055%=      5-min Rain = 0
KSW1 090816Z 17014KT 11/02 A2992 RMK A01 T01050018  RH  055%=      5-min Rain = 0
KSW1 090817Z 17016KT 11/02 A2992 RMK A01 T01050019  RH  055%=      5-min Rain = 0
KSW1 090818Z 17014KT 11/02 A2992 RMK A01 T01050019  RH  055%=      5-min Rain = 0
KSW1 090819Z 17014KT 11/02 A2992 RMK A01 T01050019  RH  055%=      5-min Rain = 0
KSW1 090820Z 18014KT 10/02 A2992 RMK A01 T01040019  RH  056%=      5-min Rain = 0
KSW1 090821Z 17013KT 10/02 A2992 RMK A01 T01040019  RH  056%=      5-min Rain = 0
KSW1 090822Z 17014KT 10/02 A2992 RMK A01 T01030019  RH  056%=      5-min Rain = 0
KSW1 090823Z 17015KT 10/02 A2992 RMK A01 T01030020  RH  056%=      5-min Rain = 0
KSW1 090824Z 17015KT 10/02 A2991 RMK A01 T01020020  RH  057%=      5-min Rain = 0
KSW1 090825Z 17014KT 10/02 A2991 RMK A01 T01020021  RH  057%=      5-min Rain = 0
KSW1 090826Z 17017KT 10/02 A2991 RMK A01 T01030021  RH  057%=      5-min Rain = 0
KSW1 090827Z 18017KT 10/02 A2991 RMK A01 T01030022  RH  057%=      5-min Rain = 0
KSW1 090828Z 17015KT 10/02 A2991 RMK A01 T01040022  RH  057%=      5-min Rain = 0
KSW1 090829Z 17016KT 10/02 A2991 RMK A01 T01040022  RH  057%=      5-min Rain = 0
KSW1 090830Z 17015G22KT 10/02 A2991 RMK A01 T01030022  RH  057%=      5-min Rain = 0
KSW1 090831Z 17017KT 10/02 A2991 RMK A01 T01030023  RH  057%=      5-min Rain = 0
KSW1 090832Z 17015KT 10/02 A2991 RMK A01 T01030023  RH  057%=      5-min Rain = 0
KSW1 090833Z 17015KT 10/02 A2991 RMK A01 T01030023  RH  057%=      5-min Rain = 0
KSW1 090834Z 17014KT 10/02 A2991 RMK A01 T01040023  RH  058%=      5-min Rain = 0
KSW1 090835Z 17015KT 10/02 A2991 RMK A01 T01030024  RH  058%=      5-min Rain = 0
KSW1 090836Z 17017KT 10/02 A2991 RMK A01 T01030024  RH  058%=      5-min Rain = 0
KSW1 090837Z 17016KT 10/02 A2991 RMK A01 T01030024  RH  058%=      5-min Rain = 0
KSW1 090838Z 17016G22KT 10/02 A2991 RMK A01 T01030024  RH  058%=      5-min Rain = 0
KSW1 090839Z 17014KT 10/03 A2991 RMK A01 T01030025  RH  058%=      5-min Rain = 0
KSW1 090840Z 17016KT 10/03 A2991 RMK A01 T01030025  RH  058%=      5-min Rain = 0
KSW1 090841Z 17015KT 10/03 A2991 RMK A01 T01030025  RH  059%=      5-min Rain = 0
KSW1 090842Z 17018KT 10/03 A2991 RMK A01 T01030026  RH  059%=      5-min Rain = 0
KSW1 090843Z 17016KT 10/03 A2991 RMK A01 T01030026  RH  059%=      5-min Rain = 0
KSW1 090844Z 17013KT 10/03 A2991 RMK A01 T01040026  RH  059%=      5-min Rain = 0
KSW1 090845Z 17015G20KT 10/03 A2991 RMK A01 T01030026  RH  059%=      5-min Rain = 0
KSW1 090846Z 17015KT 10/03 A2991 RMK A01 T01020027  RH  059%=      5-min Rain = 0
KSW1 090847Z 17016KT 10/03 A2991 RMK A01 T01020027  RH  059%=      5-min Rain = 0
KSW1 090848Z 17015G21KT 10/03 A2991 RMK A01 T01020027  RH  060%=      5-min Rain = 0
KSW1 090849Z 18014KT 10/03 A2991 RMK A01 T01020027  RH  060%=      5-min Rain = 0
KSW1 090850Z 18015KT 10/03 A2991 RMK A01 T01020028  RH  060%=      5-min Rain = 0
KSW1 090851Z 17016KT 10/03 A299 RMK A01 T01020028  RH  060%=      5-min Rain = 0
KSW1 090852Z 17017KT 10/03 A299 RMK A01 T01020029  RH  060%=      5-min Rain = 0
KSW1 090853Z 17017KT 10/03 A299 RMK A01 T01020029  RH  060%=      5-min Rain = 0
KSW1 090854Z 17016KT 10/03 A299 RMK A01 T01030030  RH  061%=      5-min Rain = 0
KSW1 090855Z 17013KT 10/03 A299 RMK A01 T01030030  RH  060%=      5-min Rain = 0
KSW1 090856Z 18017G22KT 10/03 A299 RMK A01 T01020030  RH  061%=      5-min Rain = 0
KSW1 090857Z 17018KT 10/03 A299 RMK A01 T01020031  RH  061%=      5-min Rain = 0
KSW1 090858Z 17017KT 10/03 A299 RMK A01 T01030031  RH  061%=      5-min Rain = 0
KSW1 090859Z 17016KT 10/03 A299 RMK A01 T01030031  RH  061%=      5-min Rain = 0
KSW1 090900Z 17017KT 10/03 A299 RMK A01 T01030031  RH  061%=      5-min Rain = 0
KSW1 090901Z 17016G21KT 10/03 A299 RMK A01 T01030031  RH  061%=      5-min Rain = 0
KSW1 090902Z 18017KT 10/03 A299 RMK A01 T01020031  RH  061%=      5-min Rain = 0
KSW1 090903Z 17014KT 10/03 A299 RMK A01 T01020031  RH  061%=      5-min Rain = 0
KSW1 090904Z 18013G18KT 10/03 A299 RMK A01 T01010031  RH  062%=      5-min Rain = 0
KSW1 090905Z 17015KT 10/03 A299 RMK A01 T01010031  RH  062%=      5-min Rain = 0
KSW1 090906Z 17017KT 10/03 A299 RMK A01 T01000032  RH  062%=      5-min Rain = 0
KSW1 090907Z 17015KT 10/03 A299 RMK A01 T01010033  RH  063%=      5-min Rain = 0
KSW1 090908Z 17016G21KT 10/03 A299 RMK A01 T01010032  RH  062%=      5-min Rain = 0
KSW1 090909Z 17016KT 10/03 A299 RMK A01 T01000033  RH  063%=      5-min Rain = 0
KSW1 090910Z 17015KT 10/03 A299 RMK A01 T01000033  RH  063%=      5-min Rain = 0
KSW1 090911Z 17015KT 10/03 A299 RMK A01 T01000033  RH  063%=      5-min Rain = 0
KSW1 090912Z 17015KT 10/03 A299 RMK A01 T01000033  RH  063%=      5-min Rain = 0
KSW1 090913Z 18014KT 10/03 A299 RMK A01 T01000034  RH  063%=      5-min Rain = 0
KSW1 090914Z 18015KT 10/03 A299 RMK A01 T01000034  RH  064%=      5-min Rain = 0
KSW1 090915Z 18014KT 10/03 A299 RMK A01 T00990034  RH  064%=      5-min Rain = 0
KSW1 090916Z 18014KT 10/03 A299 RMK A01 T00990034  RH  064%=      5-min Rain = 0
KSW1 090917Z 18016KT 10/04 A299 RMK A01 T00990035  RH  065%=      5-min Rain = 0
KSW1 090918Z 17014KT 10/04 A299 RMK A01 T00990036  RH  065%=      5-min Rain = 0
KSW1 090919Z 17013KT 10/04 A299 RMK A01 T00990036  RH  065%=      5-min Rain = 0
KSW1 090920Z 18014KT 10/04 A299 RMK A01 T00990036  RH  065%=      5-min Rain = 0
KSW1 090921Z 18017KT 10/04 A2989 RMK A01 T00990037  RH  065%=      5-min Rain = 0
KSW1 090922Z 17015KT 10/04 A2989 RMK A01 T00990037  RH  065%=      5-min Rain = 0
KSW1 090923Z 18017G22KT 10/04 A2989 RMK A01 T00990037  RH  065%=      5-min Rain = 0
KSW1 090924Z 18016KT 10/04 A2989 RMK A01 T00990038  RH  066%=      5-min Rain = 0
KSW1 090925Z 18016KT 10/04 A2989 RMK A01 T00990038  RH  066%=      5-min Rain = 0
KSW1 090926Z 18016KT 10/04 A2989 RMK A01 T00990038  RH  066%=      5-min Rain = 0
KSW1 090927Z 17017KT 10/04 A2989 RMK A01 T00990039  RH  066%=      5-min Rain = 0
KSW1 090928Z 18016KT 10/04 A2989 RMK A01 T00990040  RH  066%=      5-min Rain = 0
KSW1 090929Z 18016KT 10/04 A2989 RMK A01 T01000040  RH  066%=      5-min Rain = 0
KSW1 090930Z 18017KT 10/04 A2989 RMK A01 T01000040  RH  066%=      5-min Rain = 0
KSW1 090931Z 18017KT 10/04 A2989 RMK A01 T01000041  RH  067%=      5-min Rain = 0
KSW1 090932Z 18016KT 10/04 A2989 RMK A01 T01000041  RH  067%=      5-min Rain = 0
KSW1 090933Z 18014KT 10/04 A2989 RMK A01 T00990041  RH  067%=      5-min Rain = 0
KSW1 090934Z 18015KT 10/04 A2989 RMK A01 T00990041  RH  067%=      5-min Rain = 0
KSW1 090935Z 18015KT 10/04 A2989 RMK A01 T00990042  RH  068%=      5-min Rain = 0
KSW1 090936Z 17014G19KT 10/04 A2989 RMK A01 T00990042  RH  068%=      5-min Rain = 0
KSW1 090937Z 18015KT 10/04 A2989 RMK A01 T00990043  RH  068%=      5-min Rain = 0
KSW1 090938Z 18015KT 10/04 A2989 RMK A01 T00990043  RH  068%=      5-min Rain = 0
KSW1 090939Z 17015KT 10/04 A2989 RMK A01 T01000044  RH  068%=      5-min Rain = 0
KSW1 090940Z 17015KT 10/04 A2989 RMK A01 T01000044  RH  068%=      5-min Rain = 0
KSW1 090941Z 18016KT 10/05 A2989 RMK A01 T01000045  RH  068%=      5-min Rain = 0
KSW1 090942Z 18016G22KT 10/05 A2989 RMK A01 T01000045  RH  069%=      5-min Rain = 0
KSW1 090943Z 18016KT 10/05 A2989 RMK A01 T01000045  RH  069%=      5-min Rain = 0
KSW1 090944Z 17016KT 10/05 A2989 RMK A01 T01000045  RH  069%=      5-min Rain = 0
KSW1 090945Z 18018KT 10/05 A2989 RMK A01 T01000046  RH  069%=      5-min Rain = 0
KSW1 090946Z 18016KT 10/05 A2989 RMK A01 T01000046  RH  069%=      5-min Rain = 0
KSW1 090947Z 17014KT 10/05 A2989 RMK A01 T01000046  RH  069%=      5-min Rain = 0
KSW1 090948Z 17016KT 10/05 A2989 RMK A01 T01000046  RH  069%=      5-min Rain = 0
KSW1 090949Z 18015KT 10/05 A2988 RMK A01 T01000047  RH  070%=      5-min Rain = 0
KSW1 090950Z 17015G21KT 10/05 A2988 RMK A01 T01000047  RH  070%=      5-min Rain = 0
KSW1 090951Z 17016KT 10/05 A2988 RMK A01 T01000048  RH  070%=      5-min Rain = 0
KSW1 090952Z 17015KT 10/05 A2988 RMK A01 T01000048  RH  070%=      5-min Rain = 0
KSW1 090953Z 17016KT 10/05 A2988 RMK A01 T01000048  RH  070%=      5-min Rain = 0
KSW1 090954Z 17016KT 10/05 A2988 RMK A01 T01000048  RH  070%=      5-min Rain = 0
KSW1 090955Z 17016KT 10/05 A2988 RMK A01 T01000048  RH  070%=      5-min Rain = 0
KSW1 090956Z 17016KT 10/05 A2988 RMK A01 T01000048  RH  070%=      5-min Rain = 0
KSW1 090957Z 18016KT 10/05 A2988 RMK A01 T01000048  RH  070%=      5-min Rain = 0
KSW1 090958Z 17016G22KT 10/05 A2988 RMK A01 T00990048  RH  071%=      5-min Rain = 0
KSW1 090959Z 17016KT 10/05 A2988 RMK A01 T00990049  RH  071%=      5-min Rain = 0
KSW1 091000Z 18015G20KT 10/05 A2988 RMK A01 T00990049  RH  071%=      5-min Rain = 0
KSW1 091001Z 18016KT 10/05 A2988 RMK A01 T00990049  RH  071%=      5-min Rain = 0
KSW1 091002Z 18018KT 10/05 A2988 RMK A01 T00990050  RH  071%=      5-min Rain = 0
KSW1 091003Z 18016KT 10/05 A2988 RMK A01 T00990050  RH  071%=      5-min Rain = 0
KSW1 091004Z 18017KT 10/05 A2988 RMK A01 T00990050  RH  071%=      5-min Rain = 0
KSW1 091005Z 18015KT 10/05 A2988 RMK A01 T00990050  RH  071%=      5-min Rain = 0
KSW1 091006Z 17018KT 10/05 A2988 RMK A01 T00990051  RH  072%=      5-min Rain = 0
KSW1 091007Z 17014KT 10/05 A2988 RMK A01 T00990051  RH  072%=      5-min Rain = 0
KSW1 091008Z 17017KT 10/05 A2988 RMK A01 T01000051  RH  072%=      5-min Rain = 0
KSW1 091009Z 18015KT 10/05 A2988 RMK A01 T01000052  RH  072%=      5-min Rain = 0
KSW1 091010Z 18015KT 10/05 A2988 RMK A01 T01000052  RH  072%=      5-min Rain = 0
KSW1 091011Z 17015KT 10/05 A2988 RMK A01 T01000052  RH  072%=      5-min Rain = 0
KSW1 091012Z 17017KT 10/05 A2988 RMK A01 T01000053  RH  073%=      5-min Rain = 0
KSW1 091013Z 18016G22KT 10/05 A2988 RMK A01 T00990053  RH  073%=      5-min Rain = 0
KSW1 091014Z 18016KT 10/05 A2988 RMK A01 T01000053  RH  073%=      5-min Rain = 0
KSW1 091015Z 18014KT 10/05 A2988 RMK A01 T01000053  RH  073%=      5-min Rain = 0
KSW1 091016Z 17016KT 10/05 A2988 RMK A01 T00990053  RH  073%=      5-min Rain = 0
KSW1 091017Z 18016KT 10/05 A2988 RMK A01 T00990053  RH  073%=      5-min Rain = 0
KSW1 091018Z 18016KT 10/05 A2988 RMK A01 T00990054  RH  073%=      5-min Rain = 0
KSW1 091019Z 18016G21KT 10/05 A2988 RMK A01 T00990054  RH  073%=      5-min Rain = 0
KSW1 091020Z 18015KT 10/05 A2988 RMK A01 T00990054  RH  073%=      5-min Rain = 0
KSW1 091021Z 18013KT 10/05 A2988 RMK A01 T01000054  RH  073%=      5-min Rain = 0
KSW1 091022Z 18014KT 10/05 A2988 RMK A01 T00990054  RH  073%=      5-min Rain = 0
KSW1 091023Z 18015KT 10/05 A2988 RMK A01 T00990054  RH  074%=      5-min Rain = 0
KSW1 091024Z 18014KT 10/05 A2988 RMK A01 T00990054  RH  074%=      5-min Rain = 0
KSW1 091025Z 18015KT 10/05 A2988 RMK A01 T00990054  RH  074%=      5-min Rain = 0
KSW1 091026Z 18015KT 10/05 A2988 RMK A01 T00980054  RH  074%=      5-min Rain = 0
KSW1 091027Z 18016KT 10/06 A2988 RMK A01 T00980055  RH  074%=      5-min Rain = 0
KSW1 091028Z 18015KT 10/06 A2989 RMK A01 T00980055  RH  074%=      5-min Rain = 0
KSW1 091029Z 18014KT 10/06 A2989 RMK A01 T00990056  RH  075%=      5-min Rain = 0
KSW1 091030Z 18013KT 10/06 A2989 RMK A01 T00980055  RH  075%=      5-min Rain = 0
KSW1 091031Z 18014KT 10/06 A2989 RMK A01 T00980055  RH  075%=      5-min Rain = 0
KSW1 091032Z 18015KT 10/06 A2989 RMK A01 T00980056  RH  075%=      5-min Rain = 0
KSW1 091033Z 18014KT 10/06 A2989 RMK A01 T00980056  RH  075%=      5-min Rain = 0
KSW1 091034Z 18015KT 10/06 A2989 RMK A01 T00980056  RH  075%=      5-min Rain = 0
KSW1 091035Z 18015KT 10/06 A2989 RMK A01 T00980057  RH  075%=      5-min Rain = 0
KSW1 091036Z 18014KT 10/06 A2989 RMK A01 T00980057  RH  075%=      5-min Rain = 0
KSW1 091037Z 18013KT 10/06 A2989 RMK A01 T00980056  RH  075%=      5-min Rain = 0
KSW1 091038Z 18015KT 10/06 A2988 RMK A01 T00970057  RH  076%=      5-min Rain = 0
KSW1 091039Z 18014KT 10/06 A2989 RMK A01 T00980057  RH  076%=      5-min Rain = 0
KSW1 091040Z 18014KT 10/06 A2989 RMK A01 T00970057  RH  076%=      5-min Rain = 0
KSW1 091041Z 18014KT 10/06 A2989 RMK A01 T00970057  RH  076%=      5-min Rain = 0
KSW1 091042Z 18013KT 10/06 A2989 RMK A01 T00970057  RH  076%=      5-min Rain = 0
KSW1 091043Z 18013KT 10/06 A2989 RMK A01 T00970057  RH  076%=      5-min Rain = 0
KSW1 091044Z 18012KT 10/06 A2989 RMK A01 T00960057  RH  077%=      5-min Rain = 0
KSW1 091045Z 18013KT 10/06 A2989 RMK A01 T00960057  RH  077%=      5-min Rain = 0
KSW1 091046Z 18013KT 10/06 A2988 RMK A01 T00960058  RH  077%=      5-min Rain = 0
KSW1 091047Z 18014KT 10/06 A2989 RMK A01 T00960058  RH  077%=      5-min Rain = 0
KSW1 091048Z 18015KT 10/06 A2988 RMK A01 T00960059  RH  077%=      5-min Rain = 0
KSW1 091049Z 18015KT 10/06 A2988 RMK A01 T00970059  RH  077%=      5-min Rain = 0
KSW1 091050Z 18014KT 10/06 A2988 RMK A01 T00970059  RH  077%=      5-min Rain = 0
KSW1 091051Z 18016KT 10/06 A2988 RMK A01 T00970059  RH  077%=      5-min Rain = 0
KSW1 091052Z 18014KT 10/06 A2988 RMK A01 T00960059  RH  078%=      5-min Rain = 0
KSW1 091053Z 18016KT 10/06 A2988 RMK A01 T00970060  RH  078%=      5-min Rain = 0
KSW1 091054Z 18014KT 10/06 A2988 RMK A01 T00970060  RH  078%=      5-min Rain = 0
KSW1 091055Z 18014KT 10/06 A2988 RMK A01 T00970060  RH  078%=      5-min Rain = 0
KSW1 091056Z 18015KT 10/06 A2988 RMK A01 T00970061  RH  078%=      5-min Rain = 0
KSW1 091057Z 18014KT 10/06 A2988 RMK A01 T00970061  RH  078%=      5-min Rain = 0
KSW1 091058Z 18012KT 10/06 A2988 RMK A01 T00970061  RH  078%=      5-min Rain = 0
KSW1 091059Z 18011KT 10/06 A2988 RMK A01 T00960060  RH  078%=      5-min Rain = 0
KSW1 091100Z 18013KT 10/06 A2988 RMK A01 T00950060  RH  079%=      5-min Rain = 0
KSW1 091101Z 18012KT 10/06 A2988 RMK A01 T00950061  RH  079%=      5-min Rain = 0
KSW1 091102Z 18013KT 10/06 A2988 RMK A01 T00950061  RH  079%=      5-min Rain = 0
KSW1 091103Z 18013KT 10/06 A2988 RMK A01 T00960061  RH  079%=      5-min Rain = 0
KSW1 091104Z 18014G20KT 10/06 A2988 RMK A01 T00950061  RH  079%=      5-min Rain = 0
KSW1 091105Z 18014KT 10/06 A2988 RMK A01 T00960062  RH  080%=      5-min Rain = 0
KSW1 091106Z 18013KT 10/06 A2988 RMK A01 T00970062  RH  079%=      5-min Rain = 0
KSW1 091107Z 18012KT 10/06 A2988 RMK A01 T00960062  RH  079%=      5-min Rain = 0
KSW1 091108Z 18013KT 10/06 A2988 RMK A01 T00960062  RH  079%=      5-min Rain = 0
KSW1 091109Z 18013KT 10/06 A2988 RMK A01 T00960063  RH  080%=      5-min Rain = 0
KSW1 091110Z 18015KT 10/06 A2988 RMK A01 T00960063  RH  080%=      5-min Rain = 0
KSW1 091111Z 18014KT 10/06 A2988 RMK A01 T00960063  RH  080%=      5-min Rain = 0
KSW1 091112Z 18013G18KT 10/06 A2988 RMK A01 T00960063  RH  080%=      5-min Rain = 0
KSW1 091113Z 18014KT 10/06 A2988 RMK A01 T00970063  RH  080%=      5-min Rain = 0
KSW1 091114Z 18014KT 10/06 A2988 RMK A01 T00960064  RH  080%=      5-min Rain = 0
KSW1 091115Z 18013KT 10/06 A2988 RMK A01 T00960064  RH  080%=      5-min Rain = 0
KSW1 091116Z 19014KT 10/06 A2988 RMK A01 T00960064  RH  080%=      5-min Rain = 0
KSW1 091117Z 18013KT 10/06 A2988 RMK A01 T00960064  RH  080%=      5-min Rain = 0
KSW1 091118Z 19012KT 10/06 A2988 RMK A01 T00960064  RH  081%=      5-min Rain = 0
KSW1 091119Z 18013KT 10/06 A2988 RMK A01 T00960064  RH  081%=      5-min Rain = 0
KSW1 091120Z 18012KT 10/06 A2989 RMK A01 T00950064  RH  081%=      5-min Rain = 0
KSW1 091121Z 18011KT 10/06 A2989 RMK A01 T00950064  RH  081%=      5-min Rain = 0
KSW1 091122Z 19011KT 10/06 A2989 RMK A01 T00950064  RH  081%=      5-min Rain = 0
KSW1 091123Z 18012KT 10/06 A2989 RMK A01 T00950064  RH  081%=      5-min Rain = 0
KSW1 091124Z 18011KT 10/06 A2989 RMK A01 T00950064  RH  082%=      5-min Rain = 0
KSW1 091125Z 19011KT 10/07 A2988 RMK A01 T00950065  RH  082%=      5-min Rain = 0
KSW1 091126Z 19013KT 10/07 A2988 RMK A01 T00950065  RH  082%=      5-min Rain = 0
KSW1 091127Z 18013KT 10/07 A2988 RMK A01 T00950065  RH  082%=      5-min Rain = 0
KSW1 091128Z 18014KT 10/07 A2988 RMK A01 T00950065  RH  082%=      5-min Rain = 0
KSW1 091129Z 18013KT 10/07 A2989 RMK A01 T00950066  RH  082%=      5-min Rain = 0
KSW1 091130Z 19013KT 10/07 A2989 RMK A01 T00960066  RH  082%=      5-min Rain = 0
KSW1 091131Z 19013KT 10/07 A2989 RMK A01 T00960066  RH  082%=      5-min Rain = 0
KSW1 091132Z 18012KT 10/07 A2989 RMK A01 T00950066  RH  082%=      5-min Rain = 0
KSW1 091133Z 19010KT 10/07 A2989 RMK A01 T00950066  RH  082%=      5-min Rain = 0
KSW1 091134Z 19009KT 09/07 A2989 RMK A01 T00940065  RH  082%=      5-min Rain = 0
KSW1 091135Z 18009KT 09/07 A2989 RMK A01 T00940065  RH  083%=      5-min Rain = 0
KSW1 091136Z 19011KT 09/07 A2989 RMK A01 T00930066  RH  083%=      5-min Rain = 0
KSW1 091137Z 19010KT 09/07 A2989 RMK A01 T00930066  RH  083%=      5-min Rain = 0
KSW1 091138Z 19011KT 09/07 A2989 RMK A01 T00940066  RH  083%=      5-min Rain = 0
KSW1 091139Z 19013KT 09/07 A2989 RMK A01 T00940067  RH  083%=      5-min Rain = 0
KSW1 091140Z 19010KT 09/07 A2989 RMK A01 T00940067  RH  083%=      5-min Rain = 0
KSW1 091141Z 19009KT 09/07 A2989 RMK A01 T00940067  RH  083%=      5-min Rain = 0
KSW1 091142Z 19011KT 09/07 A2989 RMK A01 T00940067  RH  083%=      5-min Rain = 0
KSW1 091143Z 19010KT 09/07 A2989 RMK A01 T00940067  RH  083%=      5-min Rain = 0
KSW1 091144Z 19010KT 09/07 A2989 RMK A01 T00940067  RH  084%=      5-min Rain = 0
KSW1 091145Z 19011KT 09/07 A2989 RMK A01 T00940067  RH  084%=      5-min Rain = 0
KSW1 091146Z 20011KT 09/07 A2989 RMK A01 T00940068  RH  084%=      5-min Rain = 0
KSW1 091147Z 19011KT 09/07 A2989 RMK A01 T00940068  RH  084%=      5-min Rain = 0
KSW1 091148Z 19011KT 09/07 A2989 RMK A01 T00940068  RH  084%=      5-min Rain = 0
KSW1 091149Z 19010KT 09/07 A2989 RMK A01 T00940068  RH  084%=      5-min Rain = 0
KSW1 091150Z 19009KT 09/07 A2989 RMK A01 T00940068  RH  084%=      5-min Rain = 0
KSW1 091151Z 19011KT 09/07 A2989 RMK A01 T00930068  RH  084%=      5-min Rain = 0
KSW1 091152Z 19011KT 09/07 A2989 RMK A01 T00930068  RH  084%=      5-min Rain = 0
KSW1 091153Z 19011KT 09/07 A2989 RMK A01 T00930069  RH  085%=      5-min Rain = 0
KSW1 091154Z 19011KT 09/07 A2989 RMK A01 T00930069  RH  085%=      5-min Rain = 0
KSW1 091155Z 19011KT 09/07 A2989 RMK A01 T00930069  RH  085%=      5-min Rain = 0
KSW1 091156Z 19011KT 09/07 A2989 RMK A01 T00930069  RH  085%=      5-min Rain = 0
KSW1 091157Z 19012KT 09/07 A2989 RMK A01 T00930069  RH  085%=      5-min Rain = 0
KSW1 091158Z 19011KT 09/07 A2989 RMK A01 T00930069  RH  085%=      5-min Rain = 0
KSW1 091159Z 19010KT 09/07 A2989 RMK A01 T00930069  RH  085%=      5-min Rain = 0
KSW1 091200Z 19011KT 09/07 A2989 RMK A01 T00930069  RH  085%=      5-min Rain = 0
KSW1 091201Z 19009KT 09/07 A2989 RMK A01 T00930069  RH  085%=      5-min Rain = 0
KSW1 091202Z 19011KT 09/07 A2989 RMK A01 T00930069  RH  085%=      5-min Rain = 0
KSW1 091203Z 19011KT 09/07 A2989 RMK A01 T00930070  RH  085%=      5-min Rain = 0
KSW1 091204Z 20011KT 09/07 A2989 RMK A01 T00930069  RH  086%=      5-min Rain = 0
KSW1 091205Z 19012KT 09/07 A2989 RMK A01 T00920070  RH  086%=      5-min Rain = 0
KSW1 091206Z 20013KT 09/07 A2989 RMK A01 T00930071  RH  086%=      5-min Rain = 0
KSW1 091207Z 19012KT 09/07 A2989 RMK A01 T00940071  RH  086%=      5-min Rain = 0
KSW1 091208Z 19010KT 09/07 A2989 RMK A01 T00940071  RH  085%=      5-min Rain = 0
KSW1 091209Z 19011KT 09/07 A2989 RMK A01 T00930070  RH  085%=      5-min Rain = 0
KSW1 091210Z 20010KT 09/07 A2989 RMK A01 T00930070  RH  086%=      5-min Rain = 0
KSW1 091211Z 19011KT 09/07 A2989 RMK A01 T00920070  RH  086%=      5-min Rain = 0
KSW1 091212Z 20010KT 09/07 A2989 RMK A01 T00920071  RH  086%=      5-min Rain = 0
KSW1 091213Z 19012KT 09/07 A2989 RMK A01 T00920071  RH  086%=      5-min Rain = 0
KSW1 091214Z 20011KT 09/07 A2989 RMK A01 T00920071  RH  086%=      5-min Rain = 0
KSW1 091215Z 20012KT 09/07 A2989 RMK A01 T00920071  RH  086%=      5-min Rain = 0
KSW1 091216Z 19011KT 09/07 A2989 RMK A01 T00920071  RH  087%=      5-min Rain = 0
KSW1 091217Z 19011KT 09/07 A2989 RMK A01 T00920071  RH  086%=      5-min Rain = 0
KSW1 091218Z 19012KT 09/07 A2989 RMK A01 T00920071  RH  087%=      5-min Rain = 0
KSW1 091219Z 19011KT 09/07 A2989 RMK A01 T00930072  RH  087%=      5-min Rain = 0
KSW1 091220Z 20011KT 09/07 A2989 RMK A01 T00930072  RH  087%=      5-min Rain = 0
KSW1 091221Z 19013KT 09/07 A2989 RMK A01 T00920072  RH  087%=      5-min Rain = 0
KSW1 091222Z 19013KT 09/07 A2988 RMK A01 T00920072  RH  087%=      5-min Rain = 0
KSW1 091223Z 19013KT 09/07 A2988 RMK A01 T00920072  RH  087%=      5-min Rain = 0
KSW1 091224Z 19012KT 09/07 A2988 RMK A01 T00920072  RH  087%=      5-min Rain = 0
KSW1 091225Z 19012KT 09/07 A2988 RMK A01 T00920072  RH  087%=      5-min Rain = 0
KSW1 091226Z 19011KT 09/07 A2989 RMK A01 T00920072  RH  087%=      5-min Rain = 0
KSW1 091227Z 19013KT 09/07 A2989 RMK A01 T00920072  RH  087%=      5-min Rain = 0
KSW1 091228Z 19012KT 09/07 A2989 RMK A01 T00920072  RH  088%=      5-min Rain = 0
KSW1 091229Z 19012KT 09/07 A2989 RMK A01 T00920072  RH  088%=      5-min Rain = 0
KSW1 091230Z 19012KT 09/07 A2989 RMK A01 T00920072  RH  088%=      5-min Rain = 0
KSW1 091231Z 19011KT 09/07 A2989 RMK A01 T00920073  RH  088%=      5-min Rain = 0
KSW1 091232Z 19013KT 09/07 A2989 RMK A01 T00910072  RH  088%=      5-min Rain = 0
KSW1 091233Z 19012KT 09/07 A2989 RMK A01 T00920073  RH  088%=      5-min Rain = 0
KSW1 091234Z 19011KT 09/07 A2989 RMK A01 T00920073  RH  088%=      5-min Rain = 0
KSW1 091235Z 19012KT 09/07 A2989 RMK A01 T00920073  RH  088%=      5-min Rain = 0
KSW1 091236Z 19013KT 09/07 A2989 RMK A01 T00920073  RH  088%=      5-min Rain = 0
KSW1 091237Z 19011KT 09/07 A2989 RMK A01 T00920073  RH  088%=      5-min Rain = 0
KSW1 091238Z 19011KT 09/07 A2989 RMK A01 T00920073  RH  088%=      5-min Rain = 0
KSW1 091239Z 19012KT 09/07 A2989 RMK A01 T00920073  RH  088%=      5-min Rain = 0
KSW1 091240Z 19013KT 09/07 A2989 RMK A01 T00920074  RH  088%=      5-min Rain = 0
KSW1 091241Z 19012KT 09/07 A2989 RMK A01 T00920074  RH  089%=      5-min Rain = 0
KSW1 091242Z 19013KT 09/07 A2989 RMK A01 T00920074  RH  088%=      5-min Rain = 0
KSW1 091243Z 19012KT 09/07 A2989 RMK A01 T00920074  RH  088%=      5-min Rain = 0
KSW1 091244Z 19013KT 09/07 A2989 RMK A01 T00920074  RH  088%=      5-min Rain = 0
KSW1 091245Z 19014KT 09/07 A2989 RMK A01 T00930074  RH  088%=      5-min Rain = 0
KSW1 091246Z 19011KT 09/07 A2989 RMK A01 T00930074  RH  088%=      5-min Rain = 0
KSW1 091247Z 19012KT 09/07 A2989 RMK A01 T00930074  RH  088%=      5-min Rain = 0
KSW1 091248Z 19012KT 09/08 A2989 RMK A01 T00930075  RH  089%=      5-min Rain = 0
KSW1 091249Z 19012KT 09/08 A2989 RMK A01 T00930075  RH  089%=      5-min Rain = 0
KSW1 091250Z 19012KT 09/08 A2989 RMK A01 T00920075  RH  089%=      5-min Rain = 0
KSW1 091251Z 19012KT 09/08 A2989 RMK A01 T00920075  RH  089%=      5-min Rain = 0
KSW1 091252Z 19012KT 09/08 A2989 RMK A01 T00920075  RH  089%=      5-min Rain = 0
KSW1 091253Z 19014KT 09/08 A2988 RMK A01 T00920075  RH  089%=      5-min Rain = 0
KSW1 091254Z 18012KT 09/08 A2988 RMK A01 T00930076  RH  089%=      5-min Rain = 0
KSW1 091255Z 19013KT 09/08 A2988 RMK A01 T00930076  RH  089%=      5-min Rain = 0
KSW1 091256Z 18013KT 09/08 A2988 RMK A01 T00930075  RH  089%=      5-min Rain = 0
KSW1 091257Z 19013KT 09/08 A2988 RMK A01 T00930076  RH  089%=      5-min Rain = 0
KSW1 091258Z 19013KT 09/08 A2988 RMK A01 T00930076  RH  089%=      5-min Rain = 0
KSW1 091259Z 19014KT 09/08 A2988 RMK A01 T00930076  RH  089%=      5-min Rain = 0
KSW1 091300Z 19012KT 09/08 A2988 RMK A01 T00940076  RH  089%=      5-min Rain = 0
KSW1 091301Z 19013KT 09/08 A2988 RMK A01 T00930076  RH  089%=      5-min Rain = 0
KSW1 091302Z 19011KT 09/08 A2988 RMK A01 T00930076  RH  089%=      5-min Rain = 0
KSW1 091303Z 19013KT 09/08 A2988 RMK A01 T00930076  RH  089%=      5-min Rain = 0
KSW1 091304Z 18015KT 09/08 A2988 RMK A01 T00930077  RH  089%=      5-min Rain = 0
KSW1 091305Z 18016KT 09/08 A2988 RMK A01 T00940078  RH  089%=      5-min Rain = 0
KSW1 091306Z 19011KT 10/08 A2988 RMK A01 T00950077  RH  089%=      5-min Rain = 0
KSW1 091307Z 18012KT 09/08 A2988 RMK A01 T00940077  RH  089%=      5-min Rain = 0
KSW1 091308Z 18013KT 09/08 A2988 RMK A01 T00940076  RH  089%=      5-min Rain = 0
KSW1 091309Z 18012KT 09/08 A2988 RMK A01 T00940077  RH  089%=      5-min Rain = 0
KSW1 091310Z 19013KT 09/08 A2988 RMK A01 T00940077  RH  089%=      5-min Rain = 0
KSW1 091311Z 19013KT 09/08 A2988 RMK A01 T00940077  RH  089%=      5-min Rain = 0
KSW1 091312Z 18012KT 09/08 A2988 RMK A01 T00940077  RH  089%=      5-min Rain = 0
KSW1 091313Z 19011KT 09/08 A2988 RMK A01 T00940077  RH  089%=      5-min Rain = 0
KSW1 091314Z 18015KT 09/08 A2988 RMK A01 T00940077  RH  089%=      5-min Rain = 0
KSW1 091315Z 19013KT 09/08 A2988 RMK A01 T00940077  RH  089%=      5-min Rain = 0
KSW1 091316Z 19012KT 09/08 A2988 RMK A01 T00940077  RH  089%=      5-min Rain = 0
KSW1 091317Z 19011KT 09/08 A2988 RMK A01 T00940077  RH  089%=      5-min Rain = 0
KSW1 091318Z 19012KT 09/08 A2988 RMK A01 T00940078  RH  090%=      5-min Rain = 0
KSW1 091319Z 19013KT 09/08 A2988 RMK A01 T00940077  RH  090%=      5-min Rain = 0
KSW1 091320Z 18013G18KT 09/08 A2988 RMK A01 T00940078  RH  090%=      5-min Rain = 0
KSW1 091321Z 19011KT 09/08 A2988 RMK A01 T00940078  RH  090%=      5-min Rain = 0
KSW1 091322Z 18014KT 10/08 A2988 RMK A01 T00950078  RH  089%=      5-min Rain = 0
KSW1 091323Z 19014KT 10/08 A2988 RMK A01 T00950078  RH  089%=      5-min Rain = 0
KSW1 091324Z 19011KT 10/08 A2989 RMK A01 T00960079  RH  089%=      5-min Rain = 0
KSW1 091325Z 18011KT 10/08 A2989 RMK A01 T00960078  RH  089%=      5-min Rain = 0
KSW1 091326Z 19012KT 10/08 A2989 RMK A01 T00950078  RH  089%=      5-min Rain = 0
KSW1 091327Z 19012KT 10/08 A2988 RMK A01 T00960079  RH  089%=      5-min Rain = 0
KSW1 091328Z 19013KT 10/08 A2988 RMK A01 T00970079  RH  089%=      5-min Rain = 0
KSW1 091329Z 18014KT 10/08 A2988 RMK A01 T00970079  RH  089%=      5-min Rain = 0
KSW1 091330Z 18014KT 10/08 A2988 RMK A01 T00970079  RH  089%=      5-min Rain = 0
KSW1 091331Z 18012KT 10/08 A2988 RMK A01 T00970079  RH  089%=      5-min Rain = 0
KSW1 091332Z 18011G16KT 10/08 A2988 RMK A01 T00980080  RH  088%=      5-min Rain = 0
KSW1 091333Z 18015KT 10/08 A2988 RMK A01 T00980080  RH  088%=      5-min Rain = 0
KSW1 091334Z 19012KT 10/08 A2989 RMK A01 T00990080  RH  088%=      5-min Rain = 0
KSW1 091335Z 18014KT 10/08 A2989 RMK A01 T00990080  RH  088%=      5-min Rain = 0
KSW1 091336Z 18013KT 10/08 A2989 RMK A01 T01000080  RH  088%=      5-min Rain = 0
KSW1 091337Z 18013KT 10/08 A2989 RMK A01 T01000080  RH  088%=      5-min Rain = 0
KSW1 091338Z 19014KT 10/08 A2989 RMK A01 T01000081  RH  088%=      5-min Rain = 0
KSW1 091339Z 18013KT 10/08 A2989 RMK A01 T01000080  RH  087%=      5-min Rain = 0
KSW1 091340Z 19013KT 10/08 A2989 RMK A01 T01010081  RH  087%=      5-min Rain = 0
KSW1 091341Z 18015KT 10/08 A2989 RMK A01 T01010081  RH  087%=      5-min Rain = 0
KSW1 091342Z 19013KT 10/08 A2989 RMK A01 T01010081  RH  087%=      5-min Rain = 0
KSW1 091343Z 18013KT 10/08 A2989 RMK A01 T01010081  RH  087%=      5-min Rain = 0
KSW1 091344Z 19013KT 10/08 A2989 RMK A01 T01020081  RH  087%=      5-min Rain = 0
KSW1 091345Z 19012G17KT 10/08 A2989 RMK A01 T01020081  RH  087%=      5-min Rain = 0
KSW1 091346Z 19013KT 10/08 A2989 RMK A01 T01030082  RH  087%=      5-min Rain = 0
KSW1 091347Z 19012KT 10/08 A2989 RMK A01 T01030082  RH  087%=      5-min Rain = 0
KSW1 091348Z 19013G18KT 10/08 A2989 RMK A01 T01030082  RH  087%=      5-min Rain = 0
KSW1 091349Z 18013G18KT 10/08 A2989 RMK A01 T01040083  RH  086%=      5-min Rain = 0
KSW1 091350Z 19012KT 11/08 A2989 RMK A01 T01050082  RH  086%=      5-min Rain = 0
KSW1 091351Z 18011KT 11/08 A2989 RMK A01 T01050082  RH  086%=      5-min Rain = 0
KSW1 091352Z 18012G17KT 11/08 A2989 RMK A01 T01050083  RH  086%=      5-min Rain = 0
KSW1 091353Z 19013KT 11/08 A2989 RMK A01 T01060082  RH  086%=      5-min Rain = 0
KSW1 091354Z 19011KT 11/08 A2989 RMK A01 T01060082  RH  086%=      5-min Rain = 0
KSW1 091355Z 19014KT 11/08 A2989 RMK A01 T01060082  RH  086%=      5-min Rain = 0
KSW1 091356Z 19012KT 11/08 A2989 RMK A01 T01060083  RH  086%=      5-min Rain = 0
KSW1 091357Z 19012KT 11/08 A2989 RMK A01 T01060083  RH  085%=      5-min Rain = 0
KSW1 091358Z 19011KT 11/08 A2989 RMK A01 T01060083  RH  085%=      5-min Rain = 0
KSW1 091359Z 19013KT 11/08 A2989 RMK A01 T01060083  RH  085%=      5-min Rain = 0
KSW1 091400Z 19011KT 11/08 A2989 RMK A01 T01070083  RH  085%=      5-min Rain = 0
KSW1 091401Z 19013KT 11/08 A2989 RMK A01 T01070083  RH  085%=      5-min Rain = 0
KSW1 091402Z 19014KT 11/08 A2989 RMK A01 T01070083  RH  085%=      5-min Rain = 0
KSW1 091403Z 19013KT 11/08 A2989 RMK A01 T01080084  RH  085%=      5-min Rain = 0
KSW1 091404Z 19013KT 11/08 A2989 RMK A01 T01080084  RH  085%=      5-min Rain = 0
KSW1 091405Z 19013KT 11/08 A2989 RMK A01 T01090084  RH  085%=      5-min Rain = 0
KSW1 091406Z 19013KT 11/08 A2989 RMK A01 T01100084  RH  084%=      5-min Rain = 0
KSW1 091407Z 18012KT 11/08 A2989 RMK A01 T01100084  RH  084%=      5-min Rain = 0
KSW1 091408Z 19012KT 11/09 A2989 RMK A01 T01100085  RH  084%=      5-min Rain = 0
KSW1 091409Z 19013KT 11/09 A2989 RMK A01 T01110085  RH  084%=      5-min Rain = 0
KSW1 091410Z 18016KT 11/09 A2989 RMK A01 T01120085  RH  084%=      5-min Rain = 0
KSW1 091411Z 19014KT 11/09 A2989 RMK A01 T01120085  RH  083%=      5-min Rain = 0
KSW1 091412Z 19016KT 11/09 A2989 RMK A01 T01120085  RH  083%=      5-min Rain = 0
KSW1 091413Z 19013KT 11/09 A2989 RMK A01 T01120085  RH  083%=      5-min Rain = 0
KSW1 091414Z 19013KT 11/09 A2989 RMK A01 T01120085  RH  083%=      5-min Rain = 0
KSW1 091415Z 19016KT 11/09 A2989 RMK A01 T01130085  RH  083%=      5-min Rain = 0
KSW1 091416Z 19013KT 11/09 A2989 RMK A01 T01130085  RH  083%=      5-min Rain = 0
KSW1 091417Z 19013KT 11/09 A2989 RMK A01 T01140086  RH  083%=      5-min Rain = 0
KSW1 091418Z 19017KT 11/09 A2989 RMK A01 T01140086  RH  083%=      5-min Rain = 0
KSW1 091419Z 19012KT 11/09 A2989 RMK A01 T01140086  RH  083%=      5-min Rain = 0
KSW1 091420Z 18016KT 11/09 A2989 RMK A01 T01140086  RH  083%=      5-min Rain = 0
KSW1 091421Z 19014KT 12/09 A2989 RMK A01 T01150086  RH  083%=      5-min Rain = 0
KSW1 091422Z 19012KT 11/09 A299 RMK A01 T01140086  RH  083%=      5-min Rain = 0
KSW1 091423Z 19016KT 11/09 A2989 RMK A01 T01140086  RH  083%=      5-min Rain = 0
KSW1 091424Z 19012G17KT 11/09 A299 RMK A01 T01140086  RH  083%=      5-min Rain = 0
KSW1 091425Z 19014G20KT 12/09 A2989 RMK A01 T01150086  RH  083%=      5-min Rain = 0
KSW1 091426Z 18017KT 12/09 A2989 RMK A01 T01150086  RH  082%=      5-min Rain = 0
KSW1 091427Z 19015KT 12/09 A2989 RMK A01 T01150086  RH  082%=      5-min Rain = 0
KSW1 091428Z 19014KT 12/09 A2989 RMK A01 T01160087  RH  082%=      5-min Rain = 0
KSW1 091429Z 19011KT 12/09 A299 RMK A01 T01170087  RH  082%=      5-min Rain = 0
KSW1 091430Z 18015KT 12/09 A299 RMK A01 T01180088  RH  082%=      5-min Rain = 0
KSW1 091431Z 19015KT 12/09 A299 RMK A01 T01180087  RH  081%=      5-min Rain = 0
KSW1 091432Z 19013KT 12/09 A299 RMK A01 T01180088  RH  082%=      5-min Rain = 0
KSW1 091433Z 19012KT 12/09 A299 RMK A01 T01190088  RH  081%=      5-min Rain = 0
KSW1 091434Z 19011KT 12/09 A299 RMK A01 T01190088  RH  081%=      5-min Rain = 0
KSW1 091435Z 19011KT 12/09 A299 RMK A01 T01200088  RH  081%=      5-min Rain = 0
KSW1 091436Z 19016KT 12/09 A299 RMK A01 T01200088  RH  081%=      5-min Rain = 0
KSW1 091437Z 19015KT 12/09 A299 RMK A01 T01190087  RH  081%=      5-min Rain = 0
KSW1 091438Z 19016KT 12/09 A299 RMK A01 T01180087  RH  081%=      5-min Rain = 0
KSW1 091439Z 20012KT 12/09 A299 RMK A01 T01180087  RH  082%=      5-min Rain = 0
KSW1 091440Z 18012KT 12/09 A299 RMK A01 T01180088  RH  082%=      5-min Rain = 0
KSW1 091441Z 18012KT 12/09 A2989 RMK A01 T01190088  RH  081%=      5-min Rain = 0
KSW1 091442Z 19014G19KT 12/09 A2989 RMK A01 T01190088  RH  081%=      5-min Rain = 0
KSW1 091443Z 19016KT 12/09 A2989 RMK A01 T01190087  RH  081%=      5-min Rain = 0
KSW1 091444Z 18016KT 12/09 A2989 RMK A01 T01190087  RH  081%=      5-min Rain = 0
KSW1 091445Z 19015KT 12/09 A2989 RMK A01 T01190087  RH  081%=      5-min Rain = 0
KSW1 091446Z 19016KT 12/09 A2989 RMK A01 T01200088  RH  081%=      5-min Rain = 0
KSW1 091447Z 19015KT 12/09 A2989 RMK A01 T01200088  RH  081%=      5-min Rain = 0
KSW1 091448Z 19015KT 12/09 A2989 RMK A01 T01210088  RH  080%=      5-min Rain = 0
KSW1 091449Z 19012KT 12/09 A2989 RMK A01 T01220088  RH  080%=      5-min Rain = 0
KSW1 091450Z 19014KT 12/09 A2989 RMK A01 T01230090  RH  080%=      5-min Rain = 0
KSW1 091451Z 19013KT 13/09 A2989 RMK A01 T01260090  RH  079%=      5-min Rain = 0
KSW1 091452Z 20013KT 13/09 A2989 RMK A01 T01270090  RH  078%=      5-min Rain = 0
KSW1 091453Z 20014KT 13/09 A2989 RMK A01 T01280090  RH  077%=      5-min Rain = 0
KSW1 091454Z 18015KT 13/09 A2989 RMK A01 T01290089  RH  077%=      5-min Rain = 0
KSW1 091455Z 18015KT 13/09 A2989 RMK A01 T01280089  RH  077%=      5-min Rain = 0
KSW1 091456Z 19013KT 13/09 A299 RMK A01 T01280089  RH  077%=      5-min Rain = 0
KSW1 091457Z 19013KT 13/09 A299 RMK A01 T01290090  RH  077%=      5-min Rain = 0
KSW1 091458Z 20015KT 13/09 A2989 RMK A01 T01300089  RH  076%=      5-min Rain = 0
KSW1 091459Z 20015KT 13/09 A2989 RMK A01 T01290089  RH  076%=      5-min Rain = 0
KSW1 091500Z 19014KT 13/09 A2989 RMK A01 T01280088  RH  076%=      5-min Rain = 0
KSW1 091501Z 18016KT 13/09 A2989 RMK A01 T01280088  RH  077%=      5-min Rain = 0
KSW1 091502Z 18015KT 13/09 A2989 RMK A01 T01280088  RH  077%=      5-min Rain = 0
KSW1 091503Z 19013KT 13/09 A2989 RMK A01 T01290089  RH  076%=      5-min Rain = 0
KSW1 091504Z 19014KT 13/09 A2989 RMK A01 T01310089  RH  076%=      5-min Rain = 0
KSW1 091505Z 18014KT 13/09 A2989 RMK A01 T01310089  RH  076%=      5-min Rain = 0
KSW1 091506Z 19015KT 13/09 A2989 RMK A01 T01310089  RH  075%=      5-min Rain = 0
KSW1 091507Z 19016KT 13/09 A2989 RMK A01 T01320088  RH  075%=      5-min Rain = 0
KSW1 091508Z 19015G20KT 13/09 A2989 RMK A01 T01320088  RH  075%=      5-min Rain = 0
KSW1 091509Z 19016G22KT 13/09 A2989 RMK A01 T01330088  RH  074%=      5-min Rain = 0
KSW1 091510Z 18017KT 13/09 A2989 RMK A01 T01330088  RH  074%=      5-min Rain = 0
KSW1 091511Z 19015KT 13/09 A2989 RMK A01 T01330088  RH  074%=      5-min Rain = 0
KSW1 091512Z 19015KT 13/09 A2989 RMK A01 T01330089  RH  074%=      5-min Rain = 0
KSW1 091513Z 19016KT 13/09 A2989 RMK A01 T01340089  RH  074%=      5-min Rain = 0
KSW1 091514Z 18016KT 14/09 A2989 RMK A01 T01350089  RH  074%=      5-min Rain = 0
KSW1 091515Z 19017KT 14/09 A2989 RMK A01 T01350089  RH  073%=      5-min Rain = 0
KSW1 091516Z 19017KT 14/09 A2989 RMK A01 T01360088  RH  073%=      5-min Rain = 0
KSW1 091517Z 20016KT 14/09 A2989 RMK A01 T01360088  RH  072%=      5-min Rain = 0
KSW1 091518Z 19012KT 14/09 A2989 RMK A01 T01370089  RH  073%=      5-min Rain = 0
KSW1 091519Z 19013KT 14/09 A2989 RMK A01 T01390090  RH  072%=      5-min Rain = 0
KSW1 091520Z 19014KT 14/09 A2989 RMK A01 T01400090  RH  072%=      5-min Rain = 0
KSW1 091521Z 19017KT 14/09 A2989 RMK A01 T01400089  RH  071%=      5-min Rain = 0
KSW1 091522Z 19014KT 14/09 A2989 RMK A01 T01400087  RH  070%=      5-min Rain = 0
KSW1 091523Z 19015KT 14/09 A2989 RMK A01 T01410088  RH  070%=      5-min Rain = 0
KSW1 091524Z 20016KT 14/09 A2989 RMK A01 T01410088  RH  070%=      5-min Rain = 0
KSW1 091525Z 20017KT 14/09 A2989 RMK A01 T01410088  RH  070%=      5-min Rain = 0
KSW1 091526Z 19013KT 14/09 A2989 RMK A01 T01410088  RH  070%=      5-min Rain = 0
KSW1 091527Z 20012KT 14/09 A2989 RMK A01 T01440090  RH  070%=      5-min Rain = 0
KSW1 091528Z 19016KT 15/09 A2989 RMK A01 T01460090  RH  069%=      5-min Rain = 0
KSW1 091529Z 19017KT 15/09 A2989 RMK A01 T01460088  RH  068%=      5-min Rain = 0
KSW1 091530Z 19013KT 15/09 A2989 RMK A01 T01460089  RH  068%=      5-min Rain = 0
KSW1 091531Z 20016KT 15/09 A2989 RMK A01 T01470089  RH  068%=      5-min Rain = 0
KSW1 091532Z 20016KT 15/09 A2989 RMK A01 T01470088  RH  068%=      5-min Rain = 0
KSW1 091533Z 20012KT 15/09 A2989 RMK A01 T01470089  RH  068%=      5-min Rain = 0
KSW1 091534Z 19015KT 15/09 A2989 RMK A01 T01480089  RH  068%=      5-min Rain = 0
KSW1 091535Z 20014G19KT 15/09 A2988 RMK A01 T01490089  RH  067%=      5-min Rain = 0
KSW1 091536Z 20016KT 15/09 A2988 RMK A01 T01490088  RH  067%=      5-min Rain = 0
KSW1 091537Z 20017KT 15/09 A2988 RMK A01 T01480087  RH  067%=      5-min Rain = 0
KSW1 091538Z 20016KT 15/09 A2988 RMK A01 T01480086  RH  066%=      5-min Rain = 0
KSW1 091539Z 20015KT 15/09 A2988 RMK A01 T01480087  RH  066%=      5-min Rain = 0
KSW1 091540Z 20015KT 15/09 A2988 RMK A01 T01490086  RH  066%=      5-min Rain = 0
KSW1 091541Z 20015KT 15/09 A2988 RMK A01 T01500088  RH  066%=      5-min Rain = 0
KSW1 091542Z 20013KT 15/09 A2988 RMK A01 T01520088  RH  066%=      5-min Rain = 0
KSW1 091543Z 20016KT 16/09 A2988 RMK A01 T01550090  RH  065%=      5-min Rain = 0
KSW1 091544Z 20017KT 16/09 A2988 RMK A01 T01560087  RH  064%=      5-min Rain = 0
KSW1 091545Z 20015KT 15/09 A2988 RMK A01 T01540087  RH  064%=      5-min Rain = 0
KSW1 091546Z 20018KT 15/09 A2989 RMK A01 T01530087  RH  064%=      5-min Rain = 0
KSW1 091547Z 20017KT 15/09 A2989 RMK A01 T01520087  RH  065%=      5-min Rain = 0
KSW1 091548Z 19017KT 15/09 A2989 RMK A01 T01510087  RH  065%=      5-min Rain = 0
KSW1 091549Z 19017KT 15/09 A2989 RMK A01 T01520087  RH  065%=      5-min Rain = 0
KSW1 091550Z 19017KT 15/09 A2989 RMK A01 T01520086  RH  065%=      5-min Rain = 0
KSW1 091551Z 19017KT 15/09 A2988 RMK A01 T01530087  RH  065%=      5-min Rain = 0
KSW1 091552Z 19017KT 15/09 A2988 RMK A01 T01520086  RH  065%=      5-min Rain = 0
KSW1 091553Z 19019KT 15/09 A2988 RMK A01 T01520086  RH  065%=      5-min Rain = 0
KSW1 091554Z 20017KT 15/09 A2988 RMK A01 T01510086  RH  065%=      5-min Rain = 0
KSW1 091555Z 20016KT 15/09 A2989 RMK A01 T01510086  RH  065%=      5-min Rain = 0
KSW1 091556Z 20016KT 15/09 A2989 RMK A01 T01520087  RH  065%=      5-min Rain = 0
KSW1 091557Z 20013G18KT 15/09 A2988 RMK A01 T01530086  RH  064%=      5-min Rain = 0
KSW1 091558Z 21013KT 16/09 A2989 RMK A01 T01550087  RH  064%=      5-min Rain = 0
KSW1 091559Z 19013KT 16/09 A2989 RMK A01 T01570088  RH  063%=      5-min Rain = 0
KSW1 091600Z 18017KT 16/09 A2988 RMK A01 T01580088  RH  063%=      5-min Rain = 0
KSW1 091601Z 19014KT 16/09 A2988 RMK A01 T01590087  RH  063%=      5-min Rain = 0
KSW1 091602Z 20014G19KT 16/09 A2989 RMK A01 T01590088  RH  063%=      5-min Rain = 0
KSW1 091603Z 20016KT 16/09 A2988 RMK A01 T01610088  RH  062%=      5-min Rain = 0
KSW1 091604Z 19015KT 16/09 A2988 RMK A01 T01590087  RH  062%=      5-min Rain = 0
KSW1 091605Z 20015KT 16/09 A2988 RMK A01 T01590088  RH  062%=      5-min Rain = 0
KSW1 091606Z 20014KT 16/09 A2989 RMK A01 T01610088  RH  062%=      5-min Rain = 0
KSW1 091607Z 19014KT 16/09 A2989 RMK A01 T01620089  RH  062%=      5-min Rain = 0
KSW1 091608Z 20012KT 16/09 A2989 RMK A01 T01640089  RH  061%=      5-min Rain = 0
KSW1 091609Z 21011G19KT 17/09 A2989 RMK A01 T01670091  RH  061%=      5-min Rain = 0
KSW1 091610Z 21016KT 17/09 A2989 RMK A01 T01680087  RH  059%=      5-min Rain = 0
KSW1 091611Z 21013KT 17/09 A2989 RMK A01 T01650085  RH  059%=      5-min Rain = 0
KSW1 091612Z 21015KT 16/09 A2989 RMK A01 T01640086  RH  060%=      5-min Rain = 0
KSW1 091613Z 21015KT 17/09 A2989 RMK A01 T01650086  RH  059%=      5-min Rain = 0
KSW1 091614Z 21015KT 17/09 A2989 RMK A01 T01660085  RH  059%=      5-min Rain = 0
KSW1 091615Z 21014G19KT 17/09 A2989 RMK A01 T01660085  RH  059%=      5-min Rain = 0
KSW1 091616Z 21013KT 17/08 A2989 RMK A01 T01670084  RH  058%=      5-min Rain = 0
KSW1 091617Z 19015KT 17/09 A2989 RMK A01 T01680085  RH  058%=      5-min Rain = 0
KSW1 091618Z 20016KT 17/09 A2989 RMK A01 T01700086  RH  058%=      5-min Rain = 0
KSW1 091619Z 20015KT 17/09 A2989 RMK A01 T01700086  RH  058%=      5-min Rain = 0
KSW1 091620Z 19015KT 17/09 A2989 RMK A01 T01700085  RH  057%=      5-min Rain = 0
KSW1 091621Z 20015KT 17/08 A2989 RMK A01 T01700084  RH  057%=      5-min Rain = 0
KSW1 091622Z 21016KT 17/08 A2988 RMK A01 T01700082  RH  056%=      5-min Rain = 0
KSW1 091623Z 20016KT 17/08 A2988 RMK A01 T01700083  RH  057%=      5-min Rain = 0
KSW1 091624Z 21016KT 17/08 A2989 RMK A01 T01700083  RH  056%=      5-min Rain = 0
KSW1 091625Z 22013KT 17/09 A2989 RMK A01 T01710085  RH  057%=      5-min Rain = 0
KSW1 091626Z 22013KT 17/09 A2988 RMK A01 T01710086  RH  057%=      5-min Rain = 0
KSW1 091627Z 20013KT 17/09 A2988 RMK A01 T01730087  RH  057%=      5-min Rain = 0
KSW1 091628Z 21012KT 18/09 A2988 RMK A01 T01750087  RH  056%=      5-min Rain = 0
KSW1 091629Z 21014KT 18/09 A2988 RMK A01 T01780087  RH  055%=      5-min Rain = 0
KSW1 091630Z 20012KT 18/09 A2988 RMK A01 T01770088  RH  056%=      5-min Rain = 0
KSW1 091631Z 19015KT 18/09 A2988 RMK A01 T01780088  RH  055%=      5-min Rain = 0
KSW1 091632Z 21016KT 18/09 A2988 RMK A01 T01800087  RH  055%=      5-min Rain = 0
KSW1 091633Z 21013KT 18/08 A2988 RMK A01 T01770084  RH  054%=      5-min Rain = 0
KSW1 091634Z 22014KT 18/09 A2988 RMK A01 T01760086  RH  055%=      5-min Rain = 0
KSW1 091635Z 21017KT 18/09 A2988 RMK A01 T01760086  RH  055%=      5-min Rain = 0
KSW1 091636Z 20013KT 18/09 A2988 RMK A01 T01760085  RH  055%=      5-min Rain = 0
KSW1 091637Z 21014KT 18/09 A2988 RMK A01 T01760085  RH  055%=      5-min Rain = 0
KSW1 091638Z 21016KT 18/09 A2988 RMK A01 T01760085  RH  055%=      5-min Rain = 0
KSW1 091639Z 21013G18KT 18/08 A2988 RMK A01 T01750084  RH  055%=      5-min Rain = 0
KSW1 091640Z 20013KT 18/09 A2988 RMK A01 T01750085  RH  055%=      5-min Rain = 0
KSW1 091641Z 21013G18KT 18/09 A2988 RMK A01 T01750085  RH  055%=      5-min Rain = 0
KSW1 091642Z 21013KT 18/09 A2988 RMK A01 T01760086  RH  055%=      5-min Rain = 0
KSW1 091643Z 20011KT 18/09 A2988 RMK A01 T01770087  RH  055%=      5-min Rain = 0
KSW1 091644Z 21013G18KT 18/09 A2988 RMK A01 T01800087  RH  055%=      5-min Rain = 0
KSW1 091645Z 20016KT 18/09 A2988 RMK A01 T01810086  RH  054%=      5-min Rain = 0
KSW1 091646Z 20016KT 18/08 A2988 RMK A01 T01780084  RH  054%=      5-min Rain = 0
KSW1 091647Z 20015KT 18/09 A2988 RMK A01 T01760085  RH  055%=      5-min Rain = 0
KSW1 091648Z 20012KT 18/09 A2988 RMK A01 T01760086  RH  055%=      5-min Rain = 0
KSW1 091649Z 21012KT 18/09 A2988 RMK A01 T01790088  RH  055%=      5-min Rain = 0
KSW1 091650Z 20013KT 19/09 A2988 RMK A01 T01850090  RH  054%=      5-min Rain = 0
KSW1 091651Z 20015KT 19/09 A2988 RMK A01 T01860088  RH  053%=      5-min Rain = 0
KSW1 091652Z 20015KT 19/09 A2988 RMK A01 T01850087  RH  053%=      5-min Rain = 0
KSW1 091653Z 20013G18KT 19/09 A2988 RMK A01 T01850087  RH  053%=      5-min Rain = 0
KSW1 091654Z 19014G19KT 19/09 A2988 RMK A01 T01880086  RH  052%=      5-min Rain = 0
KSW1 091655Z 20016KT 19/09 A2988 RMK A01 T01890085  RH  051%=      5-min Rain = 0
KSW1 091656Z 21016KT 19/09 A2988 RMK A01 T01890085  RH  051%=      5-min Rain = 0
KSW1 091657Z 21015KT 19/08 A2988 RMK A01 T01880084  RH  051%=      5-min Rain = 0
KSW1 091658Z 21013KT 19/08 A2988 RMK A01 T01870084  RH  051%=      5-min Rain = 0
KSW1 091659Z 22013KT 19/09 A2988 RMK A01 T01870085  RH  051%=      5-min Rain = 0
KSW1 091700Z 21011KT 19/09 A2988 RMK A01 T01850085  RH  052%=      5-min Rain = 0
KSW1 091701Z 20015KT 19/09 A2988 RMK A01 T01850086  RH  053%=      5-min Rain = 0
KSW1 091702Z 21014KT 19/08 A2988 RMK A01 T01860084  RH  051%=      5-min Rain = 0
KSW1 091703Z 20014KT 19/08 A2988 RMK A01 T01860083  RH  051%=      5-min Rain = 0
KSW1 091704Z 21012G17KT 19/09 A2988 RMK A01 T01890085  RH  051%=      5-min Rain = 0
KSW1 091705Z 22014KT 19/09 A2988 RMK A01 T01920085  RH  050%=      5-min Rain = 0
KSW1 091706Z 21012KT 19/08 A2988 RMK A01 T01930083  RH  049%=      5-min Rain = 0
KSW1 091707Z 20013G18KT 19/09 A2988 RMK A01 T01930085  RH  049%=      5-min Rain = 0
KSW1 091708Z 21013KT 19/09 A2988 RMK A01 T01940085  RH  049%=      5-min Rain = 0
KSW1 091709Z 21013KT 19/09 A2988 RMK A01 T01910086  RH  050%=      5-min Rain = 0
KSW1 091710Z 21012KT 19/09 A2988 RMK A01 T01900088  RH  052%=      5-min Rain = 0
KSW1 091711Z 21013KT 19/09 A2988 RMK A01 T01920089  RH  051%=      5-min Rain = 0
KSW1 091712Z 20013KT 20/09 A2988 RMK A01 T01950088  RH  050%=      5-min Rain = 0
KSW1 091713Z 20015KT 20/09 A2988 RMK A01 T01950087  RH  050%=      5-min Rain = 0
KSW1 091714Z 21016KT 19/09 A2988 RMK A01 T01940087  RH  050%=      5-min Rain = 0
KSW1 091715Z 22016KT 19/08 A2988 RMK A01 T01940083  RH  048%=      5-min Rain = 0
KSW1 091716Z 22015KT 20/08 A2988 RMK A01 T01950083  RH  048%=      5-min Rain = 0
KSW1 091717Z 22014KT 19/08 A2988 RMK A01 T01940084  RH  049%=      5-min Rain = 0
KSW1 091718Z 22014KT 19/08 A2988 RMK A01 T01930083  RH  049%=      5-min Rain = 0
KSW1 091719Z 21015KT 20/08 A2988 RMK A01 T01950084  RH  049%=      5-min Rain = 0
KSW1 091720Z 20015KT 20/09 A2988 RMK A01 T01950086  RH  049%=      5-min Rain = 0
KSW1 091721Z 20017KT 20/08 A2988 RMK A01 T01970081  RH  047%=      5-min Rain = 0
KSW1 091722Z 21013KT 20/08 A2988 RMK A01 T01970080  RH  047%=      5-min Rain = 0
KSW1 091723Z 21013KT 20/08 A2988 RMK A01 T01980082  RH  047%=      5-min Rain = 0
KSW1 091724Z 21015KT 20/08 A2988 RMK A01 T02000081  RH  046%=      5-min Rain = 0
KSW1 091725Z 22014KT 20/08 A2988 RMK A01 T02010081  RH  046%=      5-min Rain = 0
KSW1 091726Z 21013KT 20/08 A2988 RMK A01 T01990079  RH  046%=      5-min Rain = 0
KSW1 091727Z 20011KT 20/08 A2988 RMK A01 T01990083  RH  047%=      5-min Rain = 0
KSW1 091728Z 21013KT 20/09 A2988 RMK A01 T02010086  RH  048%=      5-min Rain = 0
KSW1 091729Z 21013G18KT 20/08 A2988 RMK A01 T02000084  RH  047%=      5-min Rain = 0
KSW1 091730Z 20015KT 20/08 A2988 RMK A01 T02000083  RH  047%=      5-min Rain = 0
KSW1 091731Z 21015KT 20/08 A2988 RMK A01 T02010082  RH  046%=      5-min Rain = 0
KSW1 091732Z 20015KT 20/08 A2988 RMK A01 T02010082  RH  046%=      5-min Rain = 0
KSW1 091733Z 21014KT 20/08 A2988 RMK A01 T02000083  RH  047%=      5-min Rain = 0
KSW1 091734Z 21014KT 20/08 A2988 RMK A01 T02020081  RH  046%=      5-min Rain = 0
KSW1 091735Z 21011KT 20/08 A2988 RMK A01 T02020080  RH  045%=      5-min Rain = 0
KSW1 091736Z 19014KT 20/08 A2988 RMK A01 T02020082  RH  046%=      5-min Rain = 0
KSW1 091737Z 20014KT 20/09 A2988 RMK A01 T02030085  RH  046%=      5-min Rain = 0
KSW1 091738Z 20012KT 20/08 A2988 RMK A01 T02040084  RH  046%=      5-min Rain = 0
KSW1 091739Z 20012G17KT 20/08 A2988 RMK A01 T02020083  RH  046%=      5-min Rain = 0
KSW1 091740Z 21016KT 20/08 A2987 RMK A01 T02040080  RH  045%=      5-min Rain = 0
KSW1 091741Z 22015KT 21/08 A2987 RMK A01 T02060076  RH  043%=      5-min Rain = 0
KSW1 091742Z 22012G17KT 20/08 A2987 RMK A01 T02040077  RH  044%=      5-min Rain = 0
KSW1 091743Z 23011KT 20/08 A2987 RMK A01 T02040079  RH  045%=      5-min Rain = 0
KSW1 091744Z 23012KT 21/08 A2987 RMK A01 T02060080  RH  044%=      5-min Rain = 0
KSW1 091745Z 22016KT 21/08 A2987 RMK A01 T02080083  RH  045%=      5-min Rain = 0
KSW1 091746Z 20015KT 21/08 A2987 RMK A01 T02080082  RH  044%=      5-min Rain = 0
KSW1 091747Z 20014KT 21/08 A2987 RMK A01 T02090082  RH  044%=      5-min Rain = 0
KSW1 091748Z 21015KT 21/08 A2987 RMK A01 T02100082  RH  044%=      5-min Rain = 0
KSW1 091749Z 21013KT 21/08 A2987 RMK A01 T02110084  RH  044%=      5-min Rain = 0
KSW1 091750Z 22016KT 21/08 A2987 RMK A01 T02110082  RH  043%=      5-min Rain = 0
KSW1 091751Z 21013KT 21/08 A2987 RMK A01 T02110080  RH  043%=      5-min Rain = 0
KSW1 091752Z 20011KT 21/08 A2987 RMK A01 T02110079  RH  043%=      5-min Rain = 0
KSW1 091753Z 21013KT 21/08 A2987 RMK A01 T02110079  RH  043%=      5-min Rain = 0
KSW1 091754Z 21014KT 21/07 A2987 RMK A01 T02120073  RH  040%=      5-min Rain = 0
KSW1 091755Z 22013KT 21/07 A2987 RMK A01 T02110072  RH  041%=      5-min Rain = 0
KSW1 091756Z 22011KT 21/08 A2987 RMK A01 T02090076  RH  042%=      5-min Rain = 0
KSW1 091757Z 22012KT 21/08 A2987 RMK A01 T02100077  RH  042%=      5-min Rain = 0
KSW1 091758Z 21011KT 21/08 A2987 RMK A01 T02100077  RH  042%=      5-min Rain = 0
KSW1 091759Z 19011KT 21/08 A2986 RMK A01 T02130079  RH  042%=      5-min Rain = 0
KSW1 091800Z 23010G15KT 22/08 A2987 RMK A01 T02160081  RH  042%=      5-min Rain = 0
KSW1 091801Z 23011KT 22/07 A2987 RMK A01 T02200073  RH  039%=      5-min Rain = 0
KSW1 091802Z 20011KT 22/08 A2987 RMK A01 T02200075  RH  039%=      5-min Rain = 0
KSW1 091803Z 20012KT 22/08 A2986 RMK A01 T02200077  RH  040%=      5-min Rain = 0
KSW1 091804Z 21015KT 22/08 A2986 RMK A01 T02190076  RH  040%=      5-min Rain = 0
KSW1 091805Z 21011G17KT 22/08 A2986 RMK A01 T02160077  RH  041%=      5-min Rain = 0
KSW1 091806Z 21015KT 22/08 A2986 RMK A01 T02200078  RH  040%=      5-min Rain = 0
KSW1 091807Z 20012KT 22/07 A2986 RMK A01 T02180072  RH  039%=      5-min Rain = 0
KSW1 091808Z 21010KT 22/07 A2986 RMK A01 T02150074  RH  040%=      5-min Rain = 0
KSW1 091809Z 22011KT 22/08 A2986 RMK A01 T02190078  RH  040%=      5-min Rain = 0
KSW1 091810Z 21014KT 22/08 A2986 RMK A01 T02220075  RH  039%=      5-min Rain = 0
KSW1 091811Z 20012KT 22/07 A2986 RMK A01 T02210071  RH  038%=      5-min Rain = 0
KSW1 091812Z 22012KT 22/07 A2986 RMK A01 T02190073  RH  039%=      5-min Rain = 0
KSW1 091813Z 22012KT 22/07 A2986 RMK A01 T02200074  RH  039%=      5-min Rain = 0
KSW1 091814Z 22012KT 22/07 A2986 RMK A01 T02200071  RH  038%=      5-min Rain = 0
KSW1 091815Z 21010KT 22/07 A2986 RMK A01 T02220073  RH  038%=      5-min Rain = 0
KSW1 091816Z 20010KT 23/08 A2986 RMK A01 T02250076  RH  038%=      5-min Rain = 0
KSW1 091817Z 22009KT 23/08 A2986 RMK A01 T02260075  RH  038%=      5-min Rain = 0
KSW1 091818Z 20012KT 22/07 A2986 RMK A01 T02240073  RH  038%=      5-min Rain = 0
KSW1 091819Z 21011KT 22/07 A2986 RMK A01 T02240074  RH  038%=      5-min Rain = 0
KSW1 091820Z 22012G17KT 23/08 A2986 RMK A01 T02260077  RH  038%=      5-min Rain = 0
KSW1 091821Z 23013G18KT 23/08 A2986 RMK A01 T02270076  RH  038%=      5-min Rain = 0
KSW1 091822Z 23011KT 23/08 A2986 RMK A01 T02250077  RH  039%=      5-min Rain = 0
KSW1 091823Z 22010KT 23/08 A2986 RMK A01 T02260077  RH  038%=      5-min Rain = 0
KSW1 091824Z 24010KT 23/08 A2986 RMK A01 T02270075  RH  038%=      5-min Rain = 0
KSW1 091825Z 22009KT 23/08 A2985 RMK A01 T02260078  RH  039%=      5-min Rain = 0
KSW1 091826Z 21012KT 23/08 A2985 RMK A01 T02280077  RH  038%=      5-min Rain = 0
KSW1 091827Z 22010KT 23/08 A2985 RMK A01 T02310077  RH  037%=      5-min Rain = 0
KSW1 091828Z 22008KT 23/07 A2985 RMK A01 T02320074  RH  036%=      5-min Rain = 0
KSW1 091829Z 21012KT 23/07 A2985 RMK A01 T02320074  RH  036%=      5-min Rain = 0
KSW1 091830Z 20013KT 23/07 A2985 RMK A01 T02320072  RH  036%=      5-min Rain = 0
KSW1 091831Z 20012KT 23/07 A2985 RMK A01 T02300067  RH  035%=      5-min Rain = 0
KSW1 091832Z 21013KT 23/07 A2985 RMK A01 T02280069  RH  036%=      5-min Rain = 0
KSW1 091833Z 21014KT 23/07 A2985 RMK A01 T02280068  RH  036%=      5-min Rain = 0
KSW1 091834Z 20012KT 23/07 A2985 RMK A01 T02280070  RH  036%=      5-min Rain = 0
KSW1 091835Z 20016KT 23/07 A2984 RMK A01 T02290071  RH  036%=      5-min Rain = 0
KSW1 091836Z 21012KT 23/07 A2984 RMK A01 T02280072  RH  037%=      5-min Rain = 0
KSW1 091837Z 22009KT 23/07 A2984 RMK A01 T02280072  RH  037%=      5-min Rain = 0
KSW1 091838Z 19010G15KT 23/07 A2984 RMK A01 T02270072  RH  037%=      5-min Rain = 0
KSW1 091839Z 21013KT 23/07 A2984 RMK A01 T02290070  RH  036%=      5-min Rain = 0
KSW1 091840Z 20013KT 23/07 A2984 RMK A01 T02330069  RH  035%=      5-min Rain = 0
KSW1 091841Z 20015KT 23/07 A2984 RMK A01 T02320067  RH  034%=      5-min Rain = 0
KSW1 091842Z 20013KT 23/07 A2984 RMK A01 T02330067  RH  034%=      5-min Rain = 0
KSW1 091843Z 21011KT 23/07 A2984 RMK A01 T02330067  RH  034%=      5-min Rain = 0
KSW1 091844Z 22009KT 23/07 A2984 RMK A01 T02330069  RH  035%=      5-min Rain = 0
KSW1 091845Z 20007KT 23/07 A2984 RMK A01 T02340073  RH  036%=      5-min Rain = 0
KSW1 091846Z 19013G18KT 24/07 A2983 RMK A01 T02360074  RH  035%=      5-min Rain = 0
KSW1 091847Z 20016KT 24/07 A2983 RMK A01 T02380072  RH  034%=      5-min Rain = 0
KSW1 091848Z 20013KT 24/07 A2983 RMK A01 T02350070  RH  035%=      5-min Rain = 0
KSW1 091849Z 20011KT 23/07 A2983 RMK A01 T02340070  RH  035%=      5-min Rain = 0
KSW1 091850Z 19010KT 23/07 A2983 RMK A01 T02340072  RH  035%=      5-min Rain = 0
KSW1 091851Z 19011KT 23/07 A2983 RMK A01 T02340073  RH  036%=      5-min Rain = 0
KSW1 091852Z 21011KT 24/08 A2983 RMK A01 T02350077  RH  036%=      5-min Rain = 0
KSW1 091853Z 23014KT 24/06 A2983 RMK A01 T02400064  RH  032%=      5-min Rain = 0
KSW1 091854Z 22012KT 24/06 A2983 RMK A01 T02390057  RH  031%=      5-min Rain = 0
KSW1 091855Z 22012G17KT 24/06 A2983 RMK A01 T02380062  RH  032%=      5-min Rain = 0
KSW1 091856Z 23014KT 24/06 A2983 RMK A01 T02390055  RH  031%=      5-min Rain = 0
KSW1 091857Z 23012KT 24/05 A2983 RMK A01 T02400052  RH  030%=      5-min Rain = 0
KSW1 091858Z 22012KT 24/06 A2982 RMK A01 T02420057  RH  030%=      5-min Rain = 0
KSW1 091859Z 22009KT 24/06 A2982 RMK A01 T02430061  RH  031%=      5-min Rain = 0
KSW1 091900Z 21010KT 24/07 A2982 RMK A01 T02440068  RH  032%=      5-min Rain = 0
KSW1 091901Z 19011KT 25/07 A2982 RMK A01 T02450069  RH  032%=      5-min Rain = 0
KSW1 091902Z 21011KT 24/07 A2982 RMK A01 T02440066  RH  032%=      5-min Rain = 0
KSW1 091903Z 22010KT 24/06 A2982 RMK A01 T02440064  RH  031%=      5-min Rain = 0
KSW1 091904Z 22013KT 25/06 A2982 RMK A01 T02450062  RH  031%=      5-min Rain = 0
KSW1 091905Z 23009KT 24/06 A2982 RMK A01 T02420059  RH  031%=      5-min Rain = 0
KSW1 091906Z 23012KT 24/06 A2982 RMK A01 T02400063  RH  032%=      5-min Rain = 0
KSW1 091907Z 20011KT 24/06 A2982 RMK A01 T02410064  RH  032%=      5-min Rain = 0
KSW1 091908Z 21009KT 24/07 A2982 RMK A01 T02400067  RH  033%=      5-min Rain = 0
KSW1 091909Z 23007KT 24/07 A2982 RMK A01 T02390065  RH  033%=      5-min Rain = 0
KSW1 091910Z 23009KT 24/07 A2982 RMK A01 T02410065  RH  032%=      5-min Rain = 0
KSW1 091911Z 23009KT 25/06 A2982 RMK A01 T02460064  RH  031%=      5-min Rain = 0
KSW1 091912Z 22011KT 25/06 A2982 RMK A01 T02480061  RH  030%=      5-min Rain = 0
KSW1 091913Z 21012KT 25/06 A2982 RMK A01 T02470060  RH  030%=      5-min Rain = 0
KSW1 091914Z 20011KT 24/06 A2982 RMK A01 T02440055  RH  030%=      5-min Rain = 0
KSW1 091915Z 20009KT 24/06 A2982 RMK A01 T02420057  RH  030%=      5-min Rain = 0
KSW1 091916Z 20010KT 24/06 A2982 RMK A01 T02430060  RH  031%=      5-min Rain = 0
KSW1 091917Z 19009KT 25/06 A2982 RMK A01 T02470063  RH  031%=      5-min Rain = 0
KSW1 091918Z 19010KT 25/06 A2981 RMK A01 T02480061  RH  030%=      5-min Rain = 0
KSW1 091919Z 20012G17KT 25/06 A2981 RMK A01 T02460064  RH  031%=      5-min Rain = 0
KSW1 091920Z 21013KT 25/07 A2981 RMK A01 T02490067  RH  031%=      5-min Rain = 0
KSW1 091921Z 22011KT 25/05 A2981 RMK A01 T02510049  RH  027%=      5-min Rain = 0
KSW1 091922Z 24008KT 25/05 A2981 RMK A01 T02500046  RH  027%=      5-min Rain = 0
KSW1 091923Z 23008KT 25/05 A2981 RMK A01 T02530046  RH  026%=      5-min Rain = 0
KSW1 091924Z 20011KT 25/05 A2981 RMK A01 T02540054  RH  028%=      5-min Rain = 0
KSW1 091925Z 20008KT 25/06 A2981 RMK A01 T02540064  RH  030%=      5-min Rain = 0
KSW1 091926Z 19011KT 25/07 A2981 RMK A01 T02530065  RH  030%=      5-min Rain = 0
KSW1 091927Z 19010KT 25/07 A2981 RMK A01 T02510069  RH  031%=      5-min Rain = 0
KSW1 091928Z 20014KT 25/07 A2981 RMK A01 T02520071  RH  032%=      5-min Rain = 0
KSW1 091929Z 22013KT 25/06 A2981 RMK A01 T02520064  RH  030%=      5-min Rain = 0
KSW1 091930Z 22013KT 25/06 A2981 RMK A01 T02540058  RH  028%=      5-min Rain = 0
KSW1 091931Z 23010KT 25/05 A2981 RMK A01 T02530047  RH  027%=      5-min Rain = 0
KSW1 091932Z 21010KT 25/05 A2981 RMK A01 T02500050  RH  028%=      5-min Rain = 0
KSW1 091933Z 21009KT 25/05 A2981 RMK A01 T02490048  RH  027%=      5-min Rain = 0
KSW1 091934Z 23009KT 25/06 A2981 RMK A01 T02490055  RH  029%=      5-min Rain = 0
KSW1 091935Z 22011KT 25/06 A2981 RMK A01 T02490055  RH  029%=      5-min Rain = 0
KSW1 091936Z 22011KT 25/05 A2981 RMK A01 T02470051  RH  028%=      5-min Rain = 0
KSW1 091937Z 22011KT 25/05 A2981 RMK A01 T02460051  RH  029%=      5-min Rain = 0
KSW1 091938Z 20009KT 25/06 A2981 RMK A01 T02500055  RH  029%=      5-min Rain = 0
KSW1 091939Z 21010KT 25/05 A298 RMK A01 T02520049  RH  027%=      5-min Rain = 0
KSW1 091940Z 22010KT 25/05 A298 RMK A01 T02500046  RH  027%=      5-min Rain = 0
KSW1 091941Z 21013KT 25/05 A298 RMK A01 T02500049  RH  027%=      5-min Rain = 0
KSW1 091942Z 20011KT 25/05 A298 RMK A01 T02510046  RH  027%=      5-min Rain = 0
KSW1 091943Z 21010KT 25/04 A298 RMK A01 T02480044  RH  027%=      5-min Rain = 0
KSW1 091944Z 22011KT 25/05 A298 RMK A01 T02460046  RH  028%=      5-min Rain = 0
KSW1 091945Z 21015KT 25/05 A298 RMK A01 T02470045  RH  027%=      5-min Rain = 0
KSW1 091946Z 20014KT 25/04 A298 RMK A01 T02490041  RH  026%=      5-min Rain = 0
KSW1 091947Z 21012KT 25/04 A298 RMK A01 T02500036  RH  025%=      5-min Rain = 0
KSW1 091948Z 20009KT 25/04 A298 RMK A01 T02500036  RH  025%=      5-min Rain = 0
KSW1 091949Z 21009KT 25/04 A298 RMK A01 T02500038  RH  025%=      5-min Rain = 0
KSW1 091950Z 20009KT 25/04 A298 RMK A01 T02480044  RH  027%=      5-min Rain = 0
KSW1 091951Z 21009KT 25/05 A298 RMK A01 T02490047  RH  027%=      5-min Rain = 0
KSW1 091952Z 22010KT 25/05 A298 RMK A01 T02510051  RH  028%=      5-min Rain = 0
KSW1 091953Z 23010G15KT 25/05 A298 RMK A01 T02530047  RH  027%=      5-min Rain = 0
KSW1 091954Z 22014KT 25/04 A298 RMK A01 T02530043  RH  026%=      5-min Rain = 0
KSW1 091955Z 20013KT 25/04 A2979 RMK A01 T02510036  RH  025%=      5-min Rain = 0
KSW1 091956Z 23014KT 25/04 A298 RMK A01 T02510038  RH  025%=      5-min Rain = 0
KSW1 091957Z 24012KT 25/04 A298 RMK A01 T02540038  RH  025%=      5-min Rain = 0
KSW1 091958Z 24009KT 25/04 A298 RMK A01 T02540037  RH  025%=      5-min Rain = 0
KSW1 091959Z 23008KT 26/04 A298 RMK A01 T02550040  RH  025%=      5-min Rain = 0
KSW1 092000Z 23009G14KT 26/04 A298 RMK A01 T02570041  RH  025%=      5-min Rain = 0
KSW1 092001Z 22011KT 26/05 A298 RMK A01 T02590046  RH  025%=      5-min Rain = 0
KSW1 092002Z 24008KT 26/05 A2979 RMK A01 T02580047  RH  026%=      5-min Rain = 0
KSW1 092003Z 23006KT 26/05 A2979 RMK A01 T02570046  RH  026%=      5-min Rain = 0
KSW1 092004Z 20010G17KT 26/05 A2979 RMK A01 T02550050  RH  027%=      5-min Rain = 0
KSW1 092005Z 22012G18KT 26/04 A2979 RMK A01 T02550044  RH  026%=      5-min Rain = 0
KSW1 092006Z 20010KT 26/03 A2979 RMK A01 T02560033  RH  024%=      5-min Rain = 0
KSW1 092007Z 21010KT 26/03 A2979 RMK A01 T02560029  RH  023%=      5-min Rain = 0
KSW1 092008Z 22009KT 26/03 A2979 RMK A01 T02560033  RH  024%=      5-min Rain = 0
KSW1 092009Z 22006KT 26/03 A2979 RMK A01 T02560031  RH  023%=      5-min Rain = 0
KSW1 092010Z 22005KT 26/03 A2979 RMK A01 T02590034  RH  023%=      5-min Rain = 0
KSW1 092011Z 21009KT 26/03 A2979 RMK A01 T02630033  RH  023%=      5-min Rain = 0
KSW1 092012Z 21012KT 26/03 A2979 RMK A01 T02630029  RH  022%=      5-min Rain = 0
KSW1 092013Z 21013KT 26/03 A2979 RMK A01 T02630028  RH  022%=      5-min Rain = 0
KSW1 092014Z 21010KT 26/03 A2979 RMK A01 T02630027  RH  022%=      5-min Rain = 0
KSW1 092015Z 21011KT 26/03 A2979 RMK A01 T02600028  RH  022%=      5-min Rain = 0
KSW1 092016Z 22012KT 26/04 A2979 RMK A01 T02590037  RH  024%=      5-min Rain = 0
KSW1 092017Z 23012KT 26/04 A2979 RMK A01 T02600041  RH  024%=      5-min Rain = 0
KSW1 092018Z 22011KT 26/04 A2979 RMK A01 T02610038  RH  024%=      5-min Rain = 0
KSW1 092019Z 22010KT 26/03 A2979 RMK A01 T02600034  RH  023%=      5-min Rain = 0
KSW1 092020Z 22012KT 26/04 A2979 RMK A01 T02580036  RH  024%=      5-min Rain = 0
KSW1 092021Z 21013KT 26/04 A2979 RMK A01 T02570040  RH  025%=      5-min Rain = 0
KSW1 092022Z 21012KT 26/04 A2979 RMK A01 T02560042  RH  025%=      5-min Rain = 0
KSW1 092023Z 21008KT 25/04 A2978 RMK A01 T02540040  RH  025%=      5-min Rain = 0
KSW1 092024Z 20008KT 26/04 A2978 RMK A01 T02560044  RH  025%=      5-min Rain = 0
KSW1 092025Z 22011KT 26/04 A2978 RMK A01 T02600042  RH  024%=      5-min Rain = 0
KSW1 092026Z 22012KT 26/04 A2979 RMK A01 T02610037  RH  024%=      5-min Rain = 0
KSW1 092027Z 21010KT 26/03 A2979 RMK A01 T02600031  RH  023%=      5-min Rain = 0
KSW1 092028Z 20008KT 26/02 A2979 RMK A01 T02580024  RH  022%=      5-min Rain = 0
KSW1 092029Z 20010KT 26/03 A2978 RMK A01 T02580027  RH  022%=      5-min Rain = 0
KSW1 092030Z 20008KT 26/03 A2978 RMK A01 T02580031  RH  023%=      5-min Rain = 0
KSW1 092031Z 22008KT 26/03 A2978 RMK A01 T02590034  RH  023%=      5-min Rain = 0
KSW1 092032Z 23012KT 26/04 A2978 RMK A01 T02620039  RH  024%=      5-min Rain = 0
KSW1 092033Z 23010KT 27/04 A2978 RMK A01 T02650036  RH  023%=      5-min Rain = 0
KSW1 092034Z 23010KT 27/04 A2978 RMK A01 T02660037  RH  023%=      5-min Rain = 0
KSW1 092035Z 22010KT 27/03 A2978 RMK A01 T02680033  RH  022%=      5-min Rain = 0
KSW1 092036Z 22012KT 27/02 A2978 RMK A01 T02680020  RH  020%=      5-min Rain = 0
KSW1 092037Z 22011KT 26/03 A2978 RMK A01 T02640025  RH  021%=      5-min Rain = 0
KSW1 092038Z 24009KT 26/03 A2978 RMK A01 T02640028  RH  022%=      5-min Rain = 0
KSW1 092039Z 24010KT 26/03 A2978 RMK A01 T02620034  RH  023%=      5-min Rain = 0
KSW1 092040Z 24014KT 26/04 A2978 RMK A01 T02630035  RH  023%=      5-min Rain = 0
KSW1 092041Z 23012KT 26/04 A2978 RMK A01 T02630036  RH  023%=      5-min Rain = 0
KSW1 092042Z 23014KT 27/04 A2978 RMK A01 T02660038  RH  023%=      5-min Rain = 0
KSW1 092043Z 22014KT 27/04 A2978 RMK A01 T02670041  RH  023%=      5-min Rain = 0
KSW1 092044Z 22012KT 27/04 A2978 RMK A01 T02650040  RH  024%=      5-min Rain = 0
KSW1 092045Z 22009G14KT 26/04 A2978 RMK A01 T02640044  RH  024%=      5-min Rain = 0
KSW1 092046Z 20010KT 26/05 A2978 RMK A01 T02640045  RH  024%=      5-min Rain = 0
KSW1 092047Z 19011KT 26/05 A2978 RMK A01 T02630045  RH  025%=      5-min Rain = 0
KSW1 092048Z 20010KT 27/05 A2978 RMK A01 T02650047  RH  025%=      5-min Rain = 0
KSW1 092049Z 19011KT 27/05 A2978 RMK A01 T02650045  RH  024%=      5-min Rain = 0
KSW1 092050Z 21010G16KT 26/05 A2978 RMK A01 T02620046  RH  025%=      5-min Rain = 0
KSW1 092051Z 21012KT 27/04 A2978 RMK A01 T02660041  RH  024%=      5-min Rain = 0
KSW1 092052Z 21011KT 27/03 A2978 RMK A01 T02680031  RH  022%=      5-min Rain = 0
KSW1 092053Z 22013KT 27/03 A2978 RMK A01 T02690028  RH  021%=      5-min Rain = 0
KSW1 092054Z 21013KT 27/02 A2978 RMK A01 T02680018  RH  020%=      5-min Rain = 0
KSW1 092055Z 22016KT 27/02 A2978 RMK A01 T02670021  RH  020%=      5-min Rain = 0
KSW1 092056Z 23010KT 27/02 A2978 RMK A01 T02670019  RH  020%=      5-min Rain = 0
KSW1 092057Z 23014KT 27/03 A2978 RMK A01 T02660026  RH  021%=      5-min Rain = 0
KSW1 092058Z 22013KT 27/03 A2978 RMK A01 T02650027  RH  022%=      5-min Rain = 0
KSW1 092059Z 21012KT 26/02 A2978 RMK A01 T02630023  RH  021%=      5-min Rain = 0
KSW1 092100Z 21012KT 26/02 A2978 RMK A01 T02620019  RH  021%=      5-min Rain = 0
KSW1 092101Z 21012KT 26/02 A2978 RMK A01 T02610021  RH  021%=      5-min Rain = 0
KSW1 092102Z 21009G14KT 26/03 A2978 RMK A01 T02600025  RH  022%=      5-min Rain = 0
KSW1 092103Z 22012KT 26/03 A2978 RMK A01 T02590025  RH  022%=      5-min Rain = 0
KSW1 092104Z 23011KT 26/02 A2978 RMK A01 T02600024  RH  022%=      5-min Rain = 0
KSW1 092105Z 24014KT 26/02 A2978 RMK A01 T02610023  RH  021%=      5-min Rain = 0
KSW1 092106Z 22013KT 26/03 A2978 RMK A01 T02590025  RH  022%=      5-min Rain = 0
KSW1 092107Z 22010KT 26/03 A2978 RMK A01 T02580027  RH  022%=      5-min Rain = 0
KSW1 092108Z 20012KT 26/02 A2978 RMK A01 T02580024  RH  022%=      5-min Rain = 0
KSW1 092109Z 20011KT 26/03 A2978 RMK A01 T02580027  RH  022%=      5-min Rain = 0
KSW1 092110Z 22010KT 26/03 A2978 RMK A01 T02560027  RH  023%=      5-min Rain = 0
KSW1 092111Z 22011KT 26/03 A2978 RMK A01 T02550029  RH  023%=      5-min Rain = 0
KSW1 092112Z 20012KT 26/03 A2978 RMK A01 T02550029  RH  023%=      5-min Rain = 0
KSW1 092113Z 21014KT 26/02 A2978 RMK A01 T02560017  RH  021%=      5-min Rain = 0
KSW1 092114Z 21016KT 26/01 A2978 RMK A01 T02550012  RH  020%=      5-min Rain = 0
KSW1 092115Z 21012KT 25/01 A2978 RMK A01 T02540011  RH  020%=      5-min Rain = 0
KSW1 092116Z 21012KT 25/02 A2978 RMK A01 T02520015  RH  021%=      5-min Rain = 0
KSW1 092117Z 21012KT 25/02 A2978 RMK A01 T02520019  RH  022%=      5-min Rain = 0
KSW1 092118Z 22013KT 25/02 A2978 RMK A01 T02510020  RH  022%=      5-min Rain = 0
KSW1 092119Z 23012KT 25/02 A2978 RMK A01 T02490023  RH  023%=      5-min Rain = 0
KSW1 092120Z 21011KT 25/03 A2978 RMK A01 T02480025  RH  023%=      5-min Rain = 0
KSW1 092121Z 20011KT 25/03 A2978 RMK A01 T02480028  RH  024%=      5-min Rain = 0
KSW1 092122Z 21011KT 25/03 A2978 RMK A01 T02480026  RH  024%=      5-min Rain = 0
KSW1 092123Z 20012KT 25/03 A2978 RMK A01 T02480025  RH  023%=      5-min Rain = 0
KSW1 092124Z 21011KT 25/02 A2978 RMK A01 T02480024  RH  023%=      5-min Rain = 0
KSW1 092125Z 22012KT 25/03 A2978 RMK A01 T02490026  RH  023%=      5-min Rain = 0
KSW1 092126Z 22010KT 25/03 A2978 RMK A01 T02490028  RH  024%=      5-min Rain = 0
KSW1 092127Z 22011G16KT 25/03 A2978 RMK A01 T02520029  RH  023%=      5-min Rain = 0
KSW1 092128Z 21012KT 26/03 A2978 RMK A01 T02560028  RH  023%=      5-min Rain = 0
KSW1 092129Z 21015KT 26/02 A2978 RMK A01 T02580023  RH  022%=      5-min Rain = 0
KSW1 092130Z 22015KT 26/02 A2978 RMK A01 T02580020  RH  021%=      5-min Rain = 0
KSW1 092131Z 22013KT 26/02 A2978 RMK A01 T02560019  RH  021%=      5-min Rain = 0
KSW1 092132Z 22010KT 26/02 A2978 RMK A01 T02560019  RH  021%=      5-min Rain = 0
KSW1 092133Z 23010KT 26/02 A2977 RMK A01 T02560020  RH  022%=      5-min Rain = 0
KSW1 092134Z 21012KT 25/02 A2977 RMK A01 T02540024  RH  022%=      5-min Rain = 0
KSW1 092135Z 23011KT 25/02 A2977 RMK A01 T02530022  RH  022%=      5-min Rain = 0
KSW1 092136Z 22012KT 25/02 A2977 RMK A01 T02520022  RH  022%=      5-min Rain = 0
KSW1 092137Z 21010KT 25/03 A2977 RMK A01 T02500025  RH  023%=      5-min Rain = 0
KSW1 092138Z 20011KT 25/03 A2977 RMK A01 T02500027  RH  023%=      5-min Rain = 0
KSW1 092139Z 20008KT 25/03 A2977 RMK A01 T02500027  RH  023%=      5-min Rain = 0
KSW1 092140Z 21007KT 25/03 A2977 RMK A01 T02500028  RH  024%=      5-min Rain = 0
KSW1 092141Z 22009KT 25/03 A2977 RMK A01 T02500031  RH  024%=      5-min Rain = 0
KSW1 092142Z 21008KT 25/03 A2977 RMK A01 T02510030  RH  024%=      5-min Rain = 0
KSW1 092143Z 19009KT 25/03 A2977 RMK A01 T02510034  RH  024%=      5-min Rain = 0
KSW1 092144Z 19013KT 25/03 A2977 RMK A01 T02510032  RH  024%=      5-min Rain = 0
KSW1 092145Z 20011KT 25/03 A2977 RMK A01 T02510027  RH  023%=      5-min Rain = 0
KSW1 092146Z 21010KT 25/03 A2977 RMK A01 T02500029  RH  024%=      5-min Rain = 0
KSW1 092147Z 22007KT 25/03 A2977 RMK A01 T02500029  RH  024%=      5-min Rain = 0
KSW1 092148Z 22006KT 25/03 A2977 RMK A01 T02500031  RH  024%=      5-min Rain = 0
KSW1 092149Z 22006KT 25/04 A2977 RMK A01 T02510035  RH  025%=      5-min Rain = 0
KSW1 092150Z 22008KT 25/03 A2977 RMK A01 T02520032  RH  024%=      5-min Rain = 0
KSW1 092151Z 20010KT 25/03 A2977 RMK A01 T02520031  RH  024%=      5-min Rain = 0
KSW1 092152Z 18009G14KT 25/03 A2977 RMK A01 T02520032  RH  024%=      5-min Rain = 0
KSW1 092153Z 19011KT 25/03 A2977 RMK A01 T02520030  RH  024%=      5-min Rain = 0
KSW1 092154Z 21011KT 25/03 A2977 RMK A01 T02520032  RH  024%=      5-min Rain = 0
KSW1 092155Z 21012KT 25/03 A2977 RMK A01 T02530031  RH  024%=      5-min Rain = 0
KSW1 092156Z 21012KT 25/03 A2977 RMK A01 T02540031  RH  024%=      5-min Rain = 0
KSW1 092157Z 22011KT 26/04 A2977 RMK A01 T02550035  RH  024%=      5-min Rain = 0
KSW1 092158Z 22012KT 26/04 A2977 RMK A01 T02560035  RH  024%=      5-min Rain = 0
KSW1 092159Z 21013KT 26/04 A2977 RMK A01 T02580037  RH  024%=      5-min Rain = 0
KSW1 092200Z 22014KT 26/04 A2977 RMK A01 T02580037  RH  024%=      5-min Rain = 0
KSW1 092201Z 21011KT 26/04 A2977 RMK A01 T02580036  RH  024%=      5-min Rain = 0
KSW1 092202Z 21008KT 26/04 A2977 RMK A01 T02580038  RH  024%=      5-min Rain = 0
KSW1 092203Z 22010KT 26/04 A2976 RMK A01 T02600040  RH  024%=      5-min Rain = 0
KSW1 092204Z 21011KT 26/04 A2976 RMK A01 T02600035  RH  023%=      5-min Rain = 0
KSW1 092205Z 22010KT 26/04 A2976 RMK A01 T02610038  RH  024%=      5-min Rain = 0
KSW1 092206Z 22014KT 26/03 A2977 RMK A01 T02630032  RH  022%=      5-min Rain = 0
KSW1 092207Z 20012KT 26/03 A2976 RMK A01 T02640028  RH  022%=      5-min Rain = 0
KSW1 092208Z 20009KT 26/03 A2976 RMK A01 T02620030  RH  022%=      5-min Rain = 0
KSW1 092209Z 22009KT 26/03 A2977 RMK A01 T02620030  RH  022%=      5-min Rain = 0
KSW1 092210Z 21009KT 26/03 A2976 RMK A01 T02610028  RH  022%=      5-min Rain = 0
KSW1 092211Z 21013G18KT 26/03 A2976 RMK A01 T02590030  RH  023%=      5-min Rain = 0
KSW1 092212Z 21017KT 26/04 A2976 RMK A01 T02590035  RH  023%=      5-min Rain = 0
KSW1 092213Z 21012G17KT 26/03 A2976 RMK A01 T02590034  RH  023%=      5-min Rain = 0
KSW1 092214Z 20012KT 26/04 A2976 RMK A01 T02580035  RH  024%=      5-min Rain = 0
KSW1 092215Z 20012KT 26/03 A2976 RMK A01 T02570034  RH  024%=      5-min Rain = 0
KSW1 092216Z 21011G16KT 26/03 A2976 RMK A01 T02560033  RH  024%=      5-min Rain = 0
KSW1 092217Z 22013KT 26/03 A2976 RMK A01 T02550033  RH  024%=      5-min Rain = 0
KSW1 092218Z 22013KT 25/03 A2976 RMK A01 T02540029  RH  023%=      5-min Rain = 0
KSW1 092219Z 21010G15KT 25/03 A2976 RMK A01 T02530030  RH  023%=      5-min Rain = 0
KSW1 092220Z 21011KT 25/03 A2976 RMK A01 T02530029  RH  023%=      5-min Rain = 0
KSW1 092221Z 21011G16KT 25/03 A2976 RMK A01 T02520027  RH  023%=      5-min Rain = 0
KSW1 092222Z 22010G15KT 25/03 A2976 RMK A01 T02530029  RH  023%=      5-min Rain = 0
KSW1 092223Z 22014KT 25/03 A2976 RMK A01 T02520027  RH  023%=      5-min Rain = 0
KSW1 092224Z 22014KT 25/02 A2976 RMK A01 T02530024  RH  023%=      5-min Rain = 0
KSW1 092225Z 22013KT 25/03 A2976 RMK A01 T02530025  RH  023%=      5-min Rain = 0
KSW1 092226Z 23010KT 25/02 A2976 RMK A01 T02520019  RH  022%=      5-min Rain = 0
KSW1 092227Z 22011KT 25/02 A2976 RMK A01 T02530019  RH  022%=      5-min Rain = 0
KSW1 092228Z 21011KT 25/02 A2976 RMK A01 T02530022  RH  022%=      5-min Rain = 0
KSW1 092229Z 21011KT 25/02 A2976 RMK A01 T02540024  RH  022%=      5-min Rain = 0
KSW1 092230Z 21013KT 26/02 A2976 RMK A01 T02550024  RH  022%=      5-min Rain = 0
KSW1 092231Z 22012KT 26/02 A2976 RMK A01 T02550021  RH  022%=      5-min Rain = 0
KSW1 092232Z 22011G16KT 26/02 A2976 RMK A01 T02570022  RH  022%=      5-min Rain = 0
KSW1 092233Z 22015KT 26/02 A2976 RMK A01 T02580017  RH  021%=      5-min Rain = 0
KSW1 092234Z 22015KT 26/01 A2976 RMK A01 T02590010  RH  020%=      5-min Rain = 0
KSW1 092235Z 23013KT 26/01 A2975 RMK A01 T02580009  RH  020%=      5-min Rain = 0
KSW1 092236Z 23012KT 26/01 A2975 RMK A01 T02600012  RH  020%=      5-min Rain = 0
KSW1 092237Z 24010KT 26/02 A2975 RMK A01 T02610018  RH  021%=      5-min Rain = 0
KSW1 092238Z 24014KT 26/02 A2975 RMK A01 T02640020  RH  021%=      5-min Rain = 0
KSW1 092239Z 23012G17KT 27/02 A2975 RMK A01 T02650017  RH  020%=      5-min Rain = 0
KSW1 092240Z 23012KT 26/02 A2975 RMK A01 T02640017  RH  020%=      5-min Rain = 0
KSW1 092241Z 22012KT 26/02 A2975 RMK A01 T02630016  RH  020%=      5-min Rain = 0
KSW1 092242Z 21007KT 26/01 A2975 RMK A01 T02620012  RH  020%=      5-min Rain = 0
KSW1 092243Z 22006KT 26/01 A2975 RMK A01 T02610012  RH  020%=      5-min Rain = 0
KSW1 092244Z 22009KT 26/02 A2975 RMK A01 T02610018  RH  021%=      5-min Rain = 0
KSW1 092245Z 22008KT 26/02 A2975 RMK A01 T02640019  RH  020%=      5-min Rain = 0
KSW1 092246Z 22008KT 27/02 A2975 RMK A01 T02660019  RH  020%=      5-min Rain = 0
KSW1 092247Z 19010KT 27/02 A2975 RMK A01 T02660019  RH  020%=      5-min Rain = 0
KSW1 092248Z 19010KT 27/01 A2975 RMK A01 T02660011  RH  019%=      5-min Rain = 0
KSW1 092249Z 21011KT 26/01 A2975 RMK A01 T02640009  RH  019%=      5-min Rain = 0
KSW1 092250Z 22009KT 26/01 A2975 RMK A01 T02620009  RH  019%=      5-min Rain = 0
KSW1 092251Z 22008KT 26/01 A2975 RMK A01 T02610008  RH  019%=      5-min Rain = 0
KSW1 092252Z 22007KT 26/01 A2975 RMK A01 T02590008  RH  019%=      5-min Rain = 0
KSW1 092253Z 25007KT 26/01 A2975 RMK A01 T02590011  RH  020%=      5-min Rain = 0
KSW1 092254Z 25012KT 26/01 A2975 RMK A01 T02590011  RH  020%=      5-min Rain = 0
KSW1 092255Z 23013KT 26/01 A2975 RMK A01 T02580006  RH  019%=      5-min Rain = 0
KSW1 092256Z 22009KT 26/00 A2975 RMK A01 T02600000  RH  018%=      5-min Rain = 0
KSW1 092257Z 23008KT 26/01 A2975 RMK A01 T02630005  RH  019%=      5-min Rain = 0
KSW1 092258Z 23008KT 27/01 A2975 RMK A01 T02660007  RH  018%=      5-min Rain = 0
KSW1 092259Z 23006KT 27/01 A2975 RMK A01 T02670005  RH  018%=      5-min Rain = 0
KSW1 092300Z 23006KT 27/00 A2975 RMK A01 T02680003  RH  018%=      5-min Rain = 0
KSW1 092301Z 23009KT 27/01 A2975 RMK A01 T02670006  RH  018%=      5-min Rain = 0
KSW1 092302Z 23009KT 27/01 A2975 RMK A01 T02660010  RH  019%=      5-min Rain = 0
KSW1 092303Z 23009G14KT 27/01 A2975 RMK A01 T02650009  RH  019%=      5-min Rain = 0
KSW1 092304Z 24012KT 26/00 A2975 RMK A01 T02640003  RH  018%=      5-min Rain = 0
KSW1 092305Z 23010KT 26/00 A2975 RMK A01 T02620002  RH  018%=      5-min Rain = 0
KSW1 092306Z 23009KT 26/00 A2975 RMK A01 T02610003  RH  019%=      5-min Rain = 0
KSW1 092307Z 23013KT 26/01 A2975 RMK A01 T02600005  RH  019%=      5-min Rain = 0
KSW1 092308Z 23012KT 26/00 A2975 RMK A01 T02600004  RH  019%=      5-min Rain = 0
KSW1 092309Z 23012G17KT 26/01 A2975 RMK A01 T02600007  RH  019%=      5-min Rain = 0
KSW1 092310Z 23013KT 26/01 A2975 RMK A01 T02600007  RH  019%=      5-min Rain = 0
KSW1 092311Z 23010KT 26/01 A2975 RMK A01 T02600008  RH  019%=      5-min Rain = 0
KSW1 092312Z 23009KT 26/01 A2975 RMK A01 T02600010  RH  020%=      5-min Rain = 0
KSW1 092313Z 22011KT 26/01 A2975 RMK A01 T02600012  RH  020%=      5-min Rain = 0
KSW1 092314Z 23012KT 26/01 A2975 RMK A01 T02590011  RH  020%=      5-min Rain = 0
KSW1 092315Z 23012KT 26/01 A2975 RMK A01 T02580009  RH  020%=      5-min Rain = 0
KSW1 092316Z 22011KT 26/01 A2975 RMK A01 T02580009  RH  020%=      5-min Rain = 0
KSW1 092317Z 23007KT 26/01 A2975 RMK A01 T02580010  RH  020%=      5-min Rain = 0
KSW1 092318Z 22008KT 26/01 A2975 RMK A01 T02580012  RH  020%=      5-min Rain = 0
KSW1 092319Z 22011KT 26/01 A2975 RMK A01 T02570014  RH  020%=      5-min Rain = 0
KSW1 092320Z 22012KT 26/02 A2975 RMK A01 T02570016  RH  021%=      5-min Rain = 0
KSW1 092321Z 24009KT 26/02 A2975 RMK A01 T02560016  RH  021%=      5-min Rain = 0
KSW1 092322Z 23011KT 26/02 A2975 RMK A01 T02550015  RH  021%=      5-min Rain = 0
KSW1 092323Z 23012KT 26/01 A2975 RMK A01 T02550011  RH  020%=      5-min Rain = 0
KSW1 092324Z 23012KT 26/01 A2975 RMK A01 T02560010  RH  020%=      5-min Rain = 0
KSW1 092325Z 23010KT 26/01 A2975 RMK A01 T02570012  RH  020%=      5-min Rain = 0
KSW1 092326Z 23012KT 26/01 A2975 RMK A01 T02570014  RH  020%=      5-min Rain = 0
KSW1 092327Z 22012KT 26/01 A2975 RMK A01 T02570011  RH  020%=      5-min Rain = 0
KSW1 092328Z 23011KT 26/01 A2975 RMK A01 T02560012  RH  020%=      5-min Rain = 0
KSW1 092329Z 23008KT 26/01 A2975 RMK A01 T02560014  RH  021%=      5-min Rain = 0
KSW1 092330Z 24012KT 26/01 A2975 RMK A01 T02560013  RH  021%=      5-min Rain = 0
KSW1 092331Z 23012KT 26/01 A2975 RMK A01 T02560013  RH  020%=      5-min Rain = 0
KSW1 092332Z 23012KT 26/01 A2975 RMK A01 T02550009  RH  020%=      5-min Rain = 0
KSW1 092333Z 23012KT 26/01 A2975 RMK A01 T02560008  RH  020%=      5-min Rain = 0
KSW1 092334Z 23010KT 26/01 A2975 RMK A01 T02560008  RH  020%=      5-min Rain = 0
KSW1 092335Z 23013KT 26/01 A2975 RMK A01 T02560009  RH  020%=      5-min Rain = 0
KSW1 092336Z 24013KT 26/00 A2975 RMK A01 T02560004  RH  019%=      5-min Rain = 0
KSW1 092337Z 24012KT 26/00 A2975 RMK A01 T02560003  RH  019%=      5-min Rain = 0
KSW1 092338Z 25012KT 26/00 A2975 RMK A01 T02560001  RH  019%=      5-min Rain = 0
KSW1 092339Z 24012KT 26/M00 A2975 RMK A01 T02561002  RH  018%=      5-min Rain = 0
KSW1 092340Z 24010KT 26/M00 A2975 RMK A01 T02551001  RH  019%=      5-min Rain = 0
KSW1 092341Z 24011KT 26/00 A2975 RMK A01 T02550001  RH  019%=      5-min Rain = 0
KSW1 092342Z 24010KT 25/00 A2975 RMK A01 T025400-0  RH  019%=      5-min Rain = 0
KSW1 092343Z 24009KT 25/M00 A2975 RMK A01 T02541001  RH  019%=      5-min Rain = 0
KSW1 092344Z 25008KT 25/00 A2975 RMK A01 T02530000  RH  019%=      5-min Rain = 0
KSW1 092345Z 24013KT 25/00 A2975 RMK A01 T02530001  RH  019%=      5-min Rain = 0
KSW1 092346Z 24012KT 25/M00 A2975 RMK A01 T02531001  RH  019%=      5-min Rain = 0
KSW1 092347Z 23012KT 25/M00 A2975 RMK A01 T02531001  RH  019%=      5-min Rain = 0
KSW1 092348Z 23011KT 25/M00 A2975 RMK A01 T02531001  RH  019%=      5-min Rain = 0
KSW1 092349Z 24008KT 25/00 A2975 RMK A01 T02530001  RH  019%=      5-min Rain = 0
KSW1 092350Z 24010KT 25/00 A2975 RMK A01 T02520002  RH  019%=      5-min Rain = 0
KSW1 092351Z 24009KT 25/M00 A2975 RMK A01 T02521001  RH  019%=      5-min Rain = 0
KSW1 092352Z 24008KT 25/M00 A2975 RMK A01 T02521001  RH  019%=      5-min Rain = 0
KSW1 092353Z 23009KT 25/00 A2975 RMK A01 T02510001  RH  019%=      5-min Rain = 0
KSW1 092354Z 22006KT 25/M00 A2975 RMK A01 T02511001  RH  019%=      5-min Rain = 0
KSW1 092355Z 24006KT 25/00 A2975 RMK A01 T02510002  RH  019%=      5-min Rain = 0
KSW1 092356Z 24008KT 25/00 A2975 RMK A01 T02500003  RH  020%=      5-min Rain = 0
KSW1 092357Z 23007KT 25/00 A2975 RMK A01 T02500002  RH  020%=      5-min Rain = 0
KSW1 092358Z 24008KT 25/00 A2975 RMK A01 T02500002  RH  020%=      5-min Rain = 0
KSW1 092359Z 24007KT 25/00 A2975 RMK A01 T02500001  RH  019%=      5-min Rain = 0
KSW1 100000Z 24008KT 25/00 A2975 RMK A01 T02490002  RH  020%=      5-min Rain = 0
KSW1 100001Z 24008KT 25/00 A2975 RMK A01 T024900-0  RH  019%=      5-min Rain = 0
KSW1 100002Z 24007KT 25/00 A2975 RMK A01 T02490001  RH  020%=      5-min Rain = 0
KSW1 100003Z 24009KT 25/00 A2975 RMK A01 T02480001  RH  020%=      5-min Rain = 0
KSW1 100004Z 24009KT 25/M00 A2975 RMK A01 T02481001  RH  019%=      5-min Rain = 0
KSW1 100005Z 24009KT 25/M00 A2975 RMK A01 T02481001  RH  019%=      5-min Rain = 0
KSW1 100006Z 24010KT 25/M00 A2975 RMK A01 T02481002  RH  019%=      5-min Rain = 0
KSW1 100007Z 24009KT 25/M00 A2975 RMK A01 T02491002  RH  019%=      5-min Rain = 0
KSW1 100008Z 24008KT 25/M00 A2975 RMK A01 T02491001  RH  019%=      5-min Rain = 0
KSW1 100009Z 24009KT 25/M00 A2975 RMK A01 T02481002  RH  019%=      5-min Rain = 0
KSW1 100010Z 24009KT 25/M00 A2975 RMK A01 T02481002  RH  019%=      5-min Rain = 0
KSW1 100011Z 24008KT 25/M00 A2975 RMK A01 T02481002  RH  019%=      5-min Rain = 0
KSW1 100012Z 23008KT 25/M00 A2975 RMK A01 T02471001  RH  019%=      5-min Rain = 0
KSW1 100013Z 23008KT 25/M00 A2975 RMK A01 T02471002  RH  019%=      5-min Rain = 0
KSW1 100014Z 22007KT 25/M00 A2975 RMK A01 T02471003  RH  019%=      5-min Rain = 0
KSW1 100015Z 22007KT 25/M00 A2975 RMK A01 T02461002  RH  019%=      5-min Rain = 0
KSW1 100016Z 22007KT 25/M00 A2975 RMK A01 T02461003  RH  019%=      5-min Rain = 0
KSW1 100017Z 22007KT 25/M00 A2975 RMK A01 T02461003  RH  019%=      5-min Rain = 0
KSW1 100018Z 22007KT 25/M00 A2975 RMK A01 T02451003  RH  019%=      5-min Rain = 0
KSW1 100019Z 22006KT 25/M00 A2975 RMK A01 T02451003  RH  020%=      5-min Rain = 0
KSW1 100020Z 23007KT 24/M00 A2975 RMK A01 T02441003  RH  020%=      5-min Rain = 0
KSW1 100021Z 22008KT 24/M01 A2975 RMK A01 T02431006  RH  019%=      5-min Rain = 0
KSW1 100022Z 21007KT 24/M01 A2975 RMK A01 T02441005  RH  019%=      5-min Rain = 0
KSW1 100023Z 22006KT 24/M00 A2975 RMK A01 T02441004  RH  019%=      5-min Rain = 0
KSW1 100024Z 21006KT 24/M00 A2975 RMK A01 T02431004  RH  020%=      5-min Rain = 0
KSW1 100025Z 22007KT 24/M00 A2975 RMK A01 T02421004  RH  020%=      5-min Rain = 0
KSW1 100026Z 21006KT 24/M00 A2975 RMK A01 T02411003  RH  020%=      5-min Rain = 0
KSW1 100027Z 21006KT 24/M00 A2975 RMK A01 T02411003  RH  020%=      5-min Rain = 0
KSW1 100028Z 21006KT 24/M00 A2975 RMK A01 T02401002  RH  020%=      5-min Rain = 0
KSW1 100029Z 21005KT 24/M00 A2975 RMK A01 T02391002  RH  020%=      5-min Rain = 0
KSW1 100030Z 21006KT 24/M00 A2975 RMK A01 T02391002  RH  020%=      5-min Rain = 0
KSW1 100031Z 21006KT 24/M00 A2975 RMK A01 T02381004  RH  020%=      5-min Rain = 0
KSW1 100032Z 21006KT 24/M00 A2975 RMK A01 T02381004  RH  020%=      5-min Rain = 0
KSW1 100033Z 21006KT 24/M01 A2975 RMK A01 T02381005  RH  020%=      5-min Rain = 0
KSW1 100034Z 20006KT 24/M01 A2975 RMK A01 T02371005  RH  020%=      5-min Rain = 0
KSW1 100035Z 20005KT 24/M01 A2975 RMK A01 T02351006  RH  020%=      5-min Rain = 0
KSW1 100036Z 20005KT 23/M01 A2975 RMK A01 T02341006  RH  020%=      5-min Rain = 0
KSW1 100037Z 20005KT 23/M01 A2975 RMK A01 T02341006  RH  020%=      5-min Rain = 0
KSW1 100038Z 20005KT 23/M01 A2975 RMK A01 T02321006  RH  021%=      5-min Rain = 0
KSW1 100039Z 20005KT 23/M01 A2975 RMK A01 T02311007  RH  021%=      5-min Rain = 0
KSW1 100040Z 20006KT 23/M01 A2975 RMK A01 T02311007  RH  021%=      5-min Rain = 0
KSW1 100041Z 20006KT 23/M01 A2975 RMK A01 T02301007  RH  021%=      5-min Rain = 0
KSW1 100042Z 20006KT 23/M01 A2975 RMK A01 T02291007  RH  021%=      5-min Rain = 0
KSW1 100043Z 20006KT 23/M01 A2975 RMK A01 T02281007  RH  021%=      5-min Rain = 0
KSW1 100044Z 20005KT 23/M01 A2975 RMK A01 T02271007  RH  021%=      5-min Rain = 0
KSW1 100045Z 20006KT 23/M01 A2975 RMK A01 T02251006  RH  022%=      5-min Rain = 0
KSW1 100046Z 20006KT 22/M01 A2975 RMK A01 T02231006  RH  022%=      5-min Rain = 0
KSW1 100047Z 19006KT 22/M01 A2975 RMK A01 T02221006  RH  022%=      5-min Rain = 0
KSW1 100048Z 19006KT 22/M01 A2975 RMK A01 T02211007  RH  022%=      5-min Rain = 0
KSW1 100049Z 19005KT 22/M01 A2975 RMK A01 T02201007  RH  022%=      5-min Rain = 0
KSW1 100050Z 19005KT 22/M01 A2975 RMK A01 T02191007  RH  022%=      5-min Rain = 0
KSW1 100051Z 18005KT 22/M01 A2975 RMK A01 T02181007  RH  022%=      5-min Rain = 0
KSW1 100052Z 18005KT 22/M01 A2975 RMK A01 T02181006  RH  023%=      5-min Rain = 0
KSW1 100053Z 19005KT 22/M01 A2975 RMK A01 T02171006  RH  023%=      5-min Rain = 0
KSW1 100054Z 19005KT 22/M01 A2975 RMK A01 T02171006  RH  023%=      5-min Rain = 0
KSW1 100055Z 19005KT 22/M01 A2975 RMK A01 T02161006  RH  023%=      5-min Rain = 0
KSW1 100056Z 19005KT 22/M01 A2975 RMK A01 T02161006  RH  023%=      5-min Rain = 0
KSW1 100057Z 18005KT 22/M01 A2975 RMK A01 T02161006  RH  023%=      5-min Rain = 0
KSW1 100058Z 19005KT 22/M01 A2975 RMK A01 T02151006  RH  023%=      5-min Rain = 0
KSW1 100059Z 19005KT 21/M01 A2975 RMK A01 T02141006  RH  023%=      5-min Rain = 0
KSW1 100100Z 19005KT 21/M01 A2975 RMK A01 T02131006  RH  023%=      5-min Rain = 0
KSW1 100101Z 18005KT 21/M01 A2975 RMK A01 T02131006  RH  023%=      5-min Rain = 0
KSW1 100102Z 19005KT 21/M01 A2975 RMK A01 T02121006  RH  023%=      5-min Rain = 0
KSW1 100103Z 19005KT 21/M01 A2975 RMK A01 T02111006  RH  023%=      5-min Rain = 0
KSW1 100104Z 18005KT 21/M01 A2975 RMK A01 T02111007  RH  023%=      5-min Rain = 0
KSW1 100105Z 18006KT 21/M01 A2975 RMK A01 T02101007  RH  023%=      5-min Rain = 0
KSW1 100106Z 18006KT 21/M01 A2975 RMK A01 T02101007  RH  023%=      5-min Rain = 0
KSW1 100107Z 18005KT 21/M01 A2975 RMK A01 T02101008  RH  023%=      5-min Rain = 0
KSW1 100108Z 17005KT 21/M01 A2975 RMK A01 T02091007  RH  023%=      5-min Rain = 0
KSW1 100109Z 17005KT 21/M01 A2975 RMK A01 T02081007  RH  024%=      5-min Rain = 0
KSW1 100110Z 17005KT 21/M01 A2975 RMK A01 T02081008  RH  024%=      5-min Rain = 0
KSW1 100111Z 17005KT 21/M01 A2975 RMK A01 T02081008  RH  024%=      5-min Rain = 0
KSW1 100112Z 17005KT 21/M01 A2975 RMK A01 T02071009  RH  023%=      5-min Rain = 0
KSW1 100113Z 17004KT 21/M01 A2975 RMK A01 T02071010  RH  023%=      5-min Rain = 0
KSW1 100114Z 17005KT 21/M01 A2975 RMK A01 T02071010  RH  023%=      5-min Rain = 0
KSW1 100115Z 17004KT 21/M01 A2975 RMK A01 T02071010  RH  023%=      5-min Rain = 0
KSW1 100116Z 17005KT 21/M01 A2975 RMK A01 T02071010  RH  023%=      5-min Rain = 0
KSW1 100117Z 16004KT 21/M01 A2975 RMK A01 T02061010  RH  023%=      5-min Rain = 0
KSW1 100118Z 16004KT 21/M01 A2975 RMK A01 T02061009  RH  024%=      5-min Rain = 0
KSW1 100119Z 16005KT 21/M01 A2975 RMK A01 T02051009  RH  024%=      5-min Rain = 0
KSW1 100120Z 16005KT 20/M01 A2975 RMK A01 T02041008  RH  024%=      5-min Rain = 0
KSW1 100121Z 16005KT 20/M01 A2975 RMK A01 T02041008  RH  024%=      5-min Rain = 0
KSW1 100122Z 16005KT 20/M01 A2975 RMK A01 T02021007  RH  024%=      5-min Rain = 0
KSW1 100123Z 16005KT 20/M01 A2975 RMK A01 T02011007  RH  025%=      5-min Rain = 0
KSW1 100124Z 15005KT 20/M01 A2975 RMK A01 T02001007  RH  025%=      5-min Rain = 0
KSW1 100125Z 16005KT 20/M01 A2975 RMK A01 T01991006  RH  025%=      5-min Rain = 0
KSW1 100126Z 16005KT 20/M01 A2975 RMK A01 T01991006  RH  025%=      5-min Rain = 0
KSW1 100127Z 16005KT 20/M01 A2975 RMK A01 T01981006  RH  025%=      5-min Rain = 0
KSW1 100128Z 16005KT 20/M01 A2975 RMK A01 T01971005  RH  026%=      5-min Rain = 0
KSW1 100129Z 16006KT 20/M01 A2975 RMK A01 T01971006  RH  026%=      5-min Rain = 0
KSW1 100130Z 16006KT 20/M01 A2975 RMK A01 T01961006  RH  026%=      5-min Rain = 0
KSW1 100131Z 16006KT 20/M01 A2975 RMK A01 T01971005  RH  026%=      5-min Rain = 0
KSW1 100132Z 16006KT 20/M01 A2975 RMK A01 T01961006  RH  026%=      5-min Rain = 0
KSW1 100133Z 16006KT 20/M01 A2975 RMK A01 T01961005  RH  026%=      5-min Rain = 0
KSW1 100134Z 16006KT 20/M01 A2975 RMK A01 T01951005  RH  026%=      5-min Rain = 0
KSW1 100135Z 16006KT 20/M01 A2975 RMK A01 T01951005  RH  026%=      5-min Rain = 0
KSW1 100136Z 16006KT 20/M01 A2975 RMK A01 T01951005  RH  026%=      5-min Rain = 0
KSW1 100137Z 16006KT 20/M01 A2975 RMK A01 T01951005  RH  026%=      5-min Rain = 0
KSW1 100138Z 16006KT 19/M01 A2975 RMK A01 T01941005  RH  026%=      5-min Rain = 0
KSW1 100139Z 16006KT 19/M01 A2975 RMK A01 T01941005  RH  026%=      5-min Rain = 0
KSW1 100140Z 16006KT 19/M00 A2975 RMK A01 T01931004  RH  026%=      5-min Rain = 0
KSW1 100141Z 16006KT 19/M01 A2975 RMK A01 T01931005  RH  026%=      5-min Rain = 0
KSW1 100142Z 16005KT 19/M00 A2975 RMK A01 T01931004  RH  026%=      5-min Rain = 0
KSW1 100143Z 16005KT 19/M00 A2975 RMK A01 T01931004  RH  026%=      5-min Rain = 0
KSW1 100144Z 16005KT 19/M00 A2975 RMK A01 T01931004  RH  027%=      5-min Rain = 0
KSW1 100145Z 16005KT 19/M00 A2975 RMK A01 T01921004  RH  027%=      5-min Rain = 0
KSW1 100146Z 16005KT 19/M01 A2976 RMK A01 T01921005  RH  027%=      5-min Rain = 0
KSW1 100147Z 16005KT 19/M01 A2976 RMK A01 T01921005  RH  027%=      5-min Rain = 0
KSW1 100148Z 17005KT 19/M01 A2976 RMK A01 T01921005  RH  026%=      5-min Rain = 0
KSW1 100149Z 17005KT 19/M01 A2976 RMK A01 T01921005  RH  027%=      5-min Rain = 0
KSW1 100150Z 17005KT 19/M00 A2975 RMK A01 T01921004  RH  027%=      5-min Rain = 0
KSW1 100151Z 17005KT 19/M00 A2975 RMK A01 T01921004  RH  027%=      5-min Rain = 0
KSW1 100152Z 17005KT 19/M00 A2975 RMK A01 T01921004  RH  027%=      5-min Rain = 0
KSW1 100153Z 17005KT 19/M01 A2975 RMK A01 T01911005  RH  027%=      5-min Rain = 0
KSW1 100154Z 18005KT 19/M01 A2975 RMK A01 T01911005  RH  027%=      5-min Rain = 0
KSW1 100155Z 18005KT 19/M01 A2976 RMK A01 T01911005  RH  027%=      5-min Rain = 0
KSW1 100156Z 18005KT 19/M01 A2976 RMK A01 T01921006  RH  026%=      5-min Rain = 0
KSW1 100157Z 18005KT 19/M01 A2976 RMK A01 T01921006  RH  026%=      5-min Rain = 0
KSW1 100158Z 18006KT 19/M01 A2976 RMK A01 T01941006  RH  026%=      5-min Rain = 0
KSW1 100159Z 19006KT 19/M01 A2976 RMK A01 T01941006  RH  026%=      5-min Rain = 0
KSW1 100200Z 19006KT 20/M01 A2976 RMK A01 T01951006  RH  026%=      5-min Rain = 0
KSW1 100201Z 19006KT 20/M00 A2976 RMK A01 T01951004  RH  026%=      5-min Rain = 0
KSW1 100202Z 19006KT 20/M00 A2976 RMK A01 T01951004  RH  026%=      5-min Rain = 0
KSW1 100203Z 19006KT 20/M00 A2976 RMK A01 T01951004  RH  026%=      5-min Rain = 0
KSW1 100204Z 19006KT 19/M00 A2976 RMK A01 T01941004  RH  026%=      5-min Rain = 0
KSW1 100205Z 19006KT 19/M01 A2976 RMK A01 T01941005  RH  026%=      5-min Rain = 0
KSW1 100206Z 19006KT 19/M01 A2976 RMK A01 T01941006  RH  026%=      5-min Rain = 0
KSW1 100207Z 19006KT 19/M01 A2976 RMK A01 T01941007  RH  026%=      5-min Rain = 0
KSW1 100208Z 19007KT 19/M01 A2976 RMK A01 T01941007  RH  026%=      5-min Rain = 0
KSW1 100209Z 19007KT 20/M01 A2976 RMK A01 T01951007  RH  026%=      5-min Rain = 0
KSW1 100210Z 19007KT 20/M01 A2976 RMK A01 T01951008  RH  025%=      5-min Rain = 0
KSW1 100211Z 19007KT 20/M01 A2976 RMK A01 T01951008  RH  025%=      5-min Rain = 0
KSW1 100212Z 19007KT 20/M01 A2976 RMK A01 T01951008  RH  025%=      5-min Rain = 0
KSW1 100213Z 19007KT 20/M01 A2976 RMK A01 T01951008  RH  026%=      5-min Rain = 0
KSW1 100214Z 19007KT 20/M01 A2977 RMK A01 T01951007  RH  026%=      5-min Rain = 0
KSW1 100215Z 19007KT 19/M01 A2977 RMK A01 T01941008  RH  026%=      5-min Rain = 0
KSW1 100216Z 19007KT 19/M01 A2977 RMK A01 T01931008  RH  026%=      5-min Rain = 0
KSW1 100217Z 19007KT 19/M01 A2977 RMK A01 T01931008  RH  026%=      5-min Rain = 0
KSW1 100218Z 19007KT 19/M01 A2977 RMK A01 T01931008  RH  026%=      5-min Rain = 0
KSW1 100219Z 19007KT 19/M01 A2977 RMK A01 T01931009  RH  026%=      5-min Rain = 0
KSW1 100220Z 19007KT 19/M01 A2977 RMK A01 T01931009  RH  026%=      5-min Rain = 0
KSW1 100221Z 19007KT 19/M01 A2977 RMK A01 T01931009  RH  026%=      5-min Rain = 0
KSW1 100222Z 19006KT 19/M01 A2977 RMK A01 T01931009  RH  025%=      5-min Rain = 0
KSW1 100223Z 19006KT 19/M01 A2977 RMK A01 T01931009  RH  026%=      5-min Rain = 0
KSW1 100224Z 19006KT 19/M01 A2977 RMK A01 T01931009  RH  026%=      5-min Rain = 0
KSW1 100225Z 19006KT 19/M01 A2977 RMK A01 T01921009  RH  026%=      5-min Rain = 0
KSW1 100226Z 19006KT 19/M01 A2977 RMK A01 T01921009  RH  026%=      5-min Rain = 0
KSW1 100227Z 19006KT 19/M01 A2977 RMK A01 T01921009  RH  026%=      5-min Rain = 0
KSW1 100228Z 19006KT 19/M01 A2977 RMK A01 T01921009  RH  026%=      5-min Rain = 0
KSW1 100229Z 19007KT 19/M01 A2977 RMK A01 T01921010  RH  026%=      5-min Rain = 0
KSW1 100230Z 19007KT 19/M01 A2977 RMK A01 T01921009  RH  026%=      5-min Rain = 0
KSW1 100231Z 19007KT 19/M01 A2977 RMK A01 T01911009  RH  026%=      5-min Rain = 0
KSW1 100232Z 19007KT 19/M01 A2977 RMK A01 T01911009  RH  026%=      5-min Rain = 0
KSW1 100233Z 18007KT 19/M01 A2977 RMK A01 T01901009  RH  026%=      5-min Rain = 0
KSW1 100234Z 19007KT 19/M01 A2977 RMK A01 T01901008  RH  026%=      5-min Rain = 0
KSW1 100235Z 19007KT 19/M01 A2977 RMK A01 T01891009  RH  026%=      5-min Rain = 0
KSW1 100236Z 19007KT 19/M01 A2977 RMK A01 T01901009  RH  026%=      5-min Rain = 0
KSW1 100237Z 19008KT 19/M01 A2977 RMK A01 T01901010  RH  026%=      5-min Rain = 0
KSW1 100238Z 20008KT 19/M01 A2977 RMK A01 T01901011  RH  026%=      5-min Rain = 0
KSW1 100239Z 19008KT 19/M01 A2977 RMK A01 T01911011  RH  025%=      5-min Rain = 0
KSW1 100240Z 19008KT 19/M01 A2977 RMK A01 T01911013  RH  025%=      5-min Rain = 0
KSW1 100241Z 19008KT 19/M01 A2977 RMK A01 T01931013  RH  025%=      5-min Rain = 0
KSW1 100242Z 19008KT 19/M01 A2977 RMK A01 T01931013  RH  025%=      5-min Rain = 0
KSW1 100243Z 19007KT 19/M01 A2977 RMK A01 T01931013  RH  025%=      5-min Rain = 0
KSW1 100244Z 19007KT 19/M01 A2978 RMK A01 T01931013  RH  025%=      5-min Rain = 0
KSW1 100245Z 19008KT 19/M01 A2978 RMK A01 T01931013  RH  025%=      5-min Rain = 0
KSW1 100246Z 19008KT 19/M01 A2978 RMK A01 T01921013  RH  025%=      5-min Rain = 0
KSW1 100247Z 19009KT 19/M01 A2978 RMK A01 T01921014  RH  025%=      5-min Rain = 0
KSW1 100248Z 19010KT 19/M01 A2978 RMK A01 T01921014  RH  025%=      5-min Rain = 0
KSW1 100249Z 19010KT 19/M02 A2978 RMK A01 T01921015  RH  025%=      5-min Rain = 0
KSW1 100250Z 19010KT 19/M02 A2978 RMK A01 T01931016  RH  024%=      5-min Rain = 0
KSW1 100251Z 19010KT 19/M02 A2978 RMK A01 T01941017  RH  024%=      5-min Rain = 0
KSW1 100252Z 19009KT 20/M02 A2978 RMK A01 T01951018  RH  024%=      5-min Rain = 0
KSW1 100253Z 20010KT 20/M02 A2978 RMK A01 T01951017  RH  024%=      5-min Rain = 0
KSW1 100254Z 19010KT 20/M02 A2978 RMK A01 T01951019  RH  023%=      5-min Rain = 0
KSW1 100255Z 19010KT 20/M02 A2978 RMK A01 T01951020  RH  023%=      5-min Rain = 0
KSW1 100256Z 19010KT 20/M02 A2978 RMK A01 T01961020  RH  023%=      5-min Rain = 0
KSW1 100257Z 19010KT 20/M02 A2978 RMK A01 T01961021  RH  023%=      5-min Rain = 0
KSW1 100258Z 20010KT 20/M02 A2978 RMK A01 T01961022  RH  023%=      5-min Rain = 0
KSW1 100259Z 19010KT 20/M02 A2978 RMK A01 T01961022  RH  023%=      5-min Rain = 0
KSW1 100300Z 19009KT 20/M02 A2978 RMK A01 T01961022  RH  023%=      5-min Rain = 0
KSW1 100301Z 19009KT 20/M02 A2978 RMK A01 T01961022  RH  023%=      5-min Rain = 0
KSW1 100302Z 18010KT 20/M02 A2978 RMK A01 T01951023  RH  023%=      5-min Rain = 0
KSW1 100303Z 19010KT 20/M02 A2978 RMK A01 T01951023  RH  023%=      5-min Rain = 0
KSW1 100304Z 19010KT 19/M02 A2978 RMK A01 T01941024  RH  023%=      5-min Rain = 0
KSW1 100305Z 19009KT 19/M03 A2978 RMK A01 T01941025  RH  023%=      5-min Rain = 0
KSW1 100306Z 19010KT 19/M03 A2978 RMK A01 T01941026  RH  022%=      5-min Rain = 0
KSW1 100307Z 19010KT 19/M03 A2978 RMK A01 T01941027  RH  022%=      5-min Rain = 0
KSW1 100308Z 19010KT 19/M03 A2978 RMK A01 T01941028  RH  022%=      5-min Rain = 0
KSW1 100309Z 19009KT 19/M03 A2978 RMK A01 T01941029  RH  022%=      5-min Rain = 0
KSW1 100310Z 19009KT 19/M03 A2978 RMK A01 T01941028  RH  022%=      5-min Rain = 0
KSW1 100311Z 20008KT 19/M03 A2978 RMK A01 T01941027  RH  022%=      5-min Rain = 0
KSW1 100312Z 19008KT 19/M03 A2978 RMK A01 T01941026  RH  022%=      5-min Rain = 0
KSW1 100313Z 19008KT 19/M02 A2978 RMK A01 T01941023  RH  023%=      5-min Rain = 0
KSW1 100314Z 20008KT 19/M02 A2978 RMK A01 T01931019  RH  024%=      5-min Rain = 0
KSW1 100315Z 22007KT 19/M02 A2978 RMK A01 T01931017  RH  024%=      5-min Rain = 0
KSW1 100316Z 28009KT 19/M02 A2979 RMK A01 T01931016  RH  024%=      5-min Rain = 0
KSW1 100317Z 29010KT 19/M02 A2979 RMK A01 T01901020  RH  024%=      5-min Rain = 0
KSW1 100318Z 29009KT 19/M02 A2979 RMK A01 T01881023  RH  024%=      5-min Rain = 0
KSW1 100319Z 28012KT 19/M03 A2979 RMK A01 T01871025  RH  024%=      5-min Rain = 0
KSW1 100320Z 27009KT 19/M02 A2979 RMK A01 T01881018  RH  025%=      5-min Rain = 0
KSW1 100321Z 24009KT 19/M01 A2979 RMK A01 T01931014  RH  025%=      5-min Rain = 0
KSW1 100322Z 24008KT 20/M01 A2979 RMK A01 T01951014  RH  024%=      5-min Rain = 0
KSW1 100323Z 24010KT 20/M01 A298 RMK A01 T01961013  RH  024%=      5-min Rain = 0
KSW1 100324Z 25009KT 20/M01 A298 RMK A01 T01961013  RH  024%=      5-min Rain = 0
KSW1 100325Z 25010KT 19/M01 A298 RMK A01 T01941013  RH  025%=      5-min Rain = 0
KSW1 100326Z 25011KT 19/M01 A298 RMK A01 T01931011  RH  025%=      5-min Rain = 0
KSW1 100327Z 24010KT 19/M01 A298 RMK A01 T01931006  RH  026%=      5-min Rain = 0
KSW1 100328Z 24009KT 20/M01 A298 RMK A01 T01951006  RH  026%=      5-min Rain = 0
KSW1 100329Z 24008KT 20/M01 A2979 RMK A01 T01951008  RH  025%=      5-min Rain = 0
KSW1 100330Z 23008KT 19/M01 A2979 RMK A01 T01931010  RH  025%=      5-min Rain = 0
KSW1 100331Z 23007KT 19/M01 A2979 RMK A01 T01921012  RH  025%=      5-min Rain = 0
KSW1 100332Z 23006KT 19/M01 A2979 RMK A01 T01901013  RH  025%=      5-min Rain = 0
KSW1 100333Z 23007KT 19/M01 A298 RMK A01 T01881013  RH  026%=      5-min Rain = 0
KSW1 100334Z 23007KT 19/M01 A298 RMK A01 T01871013  RH  026%=      5-min Rain = 0
KSW1 100335Z 22006KT 19/M01 A298 RMK A01 T01861013  RH  026%=      5-min Rain = 0
KSW1 100336Z 23007KT 19/M01 A298 RMK A01 T01851012  RH  026%=      5-min Rain = 0
KSW1 100337Z 23006KT 18/M01 A298 RMK A01 T01841013  RH  026%=      5-min Rain = 0
KSW1 100338Z 22007KT 18/M01 A298 RMK A01 T01841013  RH  026%=      5-min Rain = 0
KSW1 100339Z 22007KT 18/M01 A298 RMK A01 T01841012  RH  026%=      5-min Rain = 0
KSW1 100340Z 22006KT 18/M01 A298 RMK A01 T01831011  RH  027%=      5-min Rain = 0
KSW1 100341Z 21006KT 18/M01 A298 RMK A01 T01821011  RH  027%=      5-min Rain = 0
KSW1 100342Z 20005KT 18/M01 A298 RMK A01 T01811010  RH  027%=      5-min Rain = 0
KSW1 100343Z 20005KT 18/M01 A2979 RMK A01 T01791011  RH  027%=      5-min Rain = 0
KSW1 100344Z 19005KT 18/M01 A2979 RMK A01 T01771013  RH  028%=      5-min Rain = 0
KSW1 100345Z 19005KT 18/M01 A2979 RMK A01 T01751013  RH  028%=      5-min Rain = 0
KSW1 100346Z 18005KT 17/M01 A2979 RMK A01 T01731014  RH  028%=      5-min Rain = 0
KSW1 100347Z 19006KT 17/M01 A2979 RMK A01 T01711013  RH  029%=      5-min Rain = 0
KSW1 100348Z 19006KT 17/M01 A2979 RMK A01 T01701013  RH  029%=      5-min Rain = 0
KSW1 100349Z 18005KT 17/M01 A2979 RMK A01 T01681013  RH  029%=      5-min Rain = 0
KSW1 100350Z 17005KT 17/M01 A298 RMK A01 T01671012  RH  029%=      5-min Rain = 0
KSW1 100351Z 18005KT 17/M01 A298 RMK A01 T01661011  RH  030%=      5-min Rain = 0
KSW1 100352Z 18004KT 17/M01 A298 RMK A01 T01651010  RH  030%=      5-min Rain = 0
KSW1 100353Z 17004KT 17/M01 A298 RMK A01 T01651009  RH  031%=      5-min Rain = 0
KSW1 100354Z 17004KT 16/M01 A298 RMK A01 T01641008  RH  031%=      5-min Rain = 0
KSW1 100355Z 18005KT 16/M01 A298 RMK A01 T01631007  RH  031%=      5-min Rain = 0
KSW1 100356Z 18006KT 16/M00 A298 RMK A01 T01621004  RH  032%=      5-min Rain = 0
KSW1 100357Z 18006KT 16/M00 A298 RMK A01 T01611003  RH  033%=      5-min Rain = 0
KSW1 100358Z 18005KT 16/M00 A298 RMK A01 T01611002  RH  033%=      5-min Rain = 0
KSW1 100359Z 18004KT 16/M00 A298 RMK A01 T01601002  RH  033%=      5-min Rain = 0
KSW1 100400Z 18005KT 16/M00 A298 RMK A01 T01591002  RH  033%=      5-min Rain = 0
KSW1 100401Z 18005KT 16/M00 A2979 RMK A01 T01591001  RH  034%=      5-min Rain = 0
KSW1 100402Z 18005KT 16/00 A2979 RMK A01 T01590001  RH  034%=      5-min Rain = 0
KSW1 100403Z 17005KT 16/00 A2979 RMK A01 T01590004  RH  035%=      5-min Rain = 0
KSW1 100404Z 17004KT 16/00 A2979 RMK A01 T01590004  RH  035%=      5-min Rain = 0
KSW1 100405Z 18003KT 16/01 A2979 RMK A01 T01590005  RH  035%=      5-min Rain = 0
KSW1 100406Z 17004KT 16/01 A2979 RMK A01 T01580007  RH  036%=      5-min Rain = 0
KSW1 100407Z 17004KT 16/01 A2979 RMK A01 T01580007  RH  036%=      5-min Rain = 0
KSW1 100408Z 16004KT 16/01 A2979 RMK A01 T01570008  RH  036%=      5-min Rain = 0
KSW1 100409Z 16004KT 16/01 A2979 RMK A01 T01570010  RH  037%=      5-min Rain = 0
KSW1 100410Z 16005KT 16/01 A2979 RMK A01 T01560012  RH  037%=      5-min Rain = 0
KSW1 100411Z 17005KT 16/01 A2979 RMK A01 T01550013  RH  038%=      5-min Rain = 0
KSW1 100412Z 17006KT 15/01 A2979 RMK A01 T01540014  RH  039%=      5-min Rain = 0
KSW1 100413Z 17006KT 15/02 A2979 RMK A01 T01530018  RH  040%=      5-min Rain = 0
KSW1 100414Z 18006KT 15/02 A2979 RMK A01 T01530022  RH  041%=      5-min Rain = 0
KSW1 100415Z 19006KT 15/03 A2979 RMK A01 T01520025  RH  042%=      5-min Rain = 0
KSW1 100416Z 18005KT 15/03 A2979 RMK A01 T01530028  RH  043%=      5-min Rain = 0
KSW1 100417Z 18005KT 15/03 A2979 RMK A01 T01530031  RH  044%=      5-min Rain = 0
KSW1 100418Z 19005KT 15/03 A2979 RMK A01 T01540033  RH  044%=      5-min Rain = 0
KSW1 100419Z 19005KT 16/04 A2979 RMK A01 T01560036  RH  045%=      5-min Rain = 0
KSW1 100420Z 18005KT 16/04 A2979 RMK A01 T01560036  RH  045%=      5-min Rain = 0
KSW1 100421Z 18005KT 16/04 A2979 RMK A01 T01560038  RH  045%=      5-min Rain = 0
KSW1 100422Z 18006KT 16/04 A2979 RMK A01 T01560038  RH  045%=      5-min Rain = 0
KSW1 100423Z 18006KT 16/04 A2979 RMK A01 T01560038  RH  046%=      5-min Rain = 0
KSW1 100424Z 18005KT 16/04 A2979 RMK A01 T01550039  RH  046%=      5-min Rain = 0
KSW1 100425Z 19005KT 16/04 A2979 RMK A01 T01550040  RH  046%=      5-min Rain = 0
KSW1 100426Z 18005KT 15/04 A2979 RMK A01 T01540040  RH  046%=      5-min Rain = 0
KSW1 100427Z 18005KT 15/04 A2978 RMK A01 T01540040  RH  047%=      5-min Rain = 0
KSW1 100428Z 18005KT 15/04 A2978 RMK A01 T01540041  RH  047%=      5-min Rain = 0
KSW1 100429Z 19005KT 15/04 A2979 RMK A01 T01540042  RH  047%=      5-min Rain = 0
KSW1 100430Z 19006KT 15/04 A2979 RMK A01 T01540043  RH  047%=      5-min Rain = 0
KSW1 100431Z 18005KT 15/04 A2979 RMK A01 T01530043  RH  048%=      5-min Rain = 0
KSW1 100432Z 18005KT 15/04 A2979 RMK A01 T01520043  RH  048%=      5-min Rain = 0
KSW1 100433Z 19006KT 15/05 A2979 RMK A01 T01510045  RH  049%=      5-min Rain = 0
KSW1 100434Z 19007KT 15/05 A2979 RMK A01 T01500046  RH  050%=      5-min Rain = 0
KSW1 100435Z 19006KT 15/05 A2979 RMK A01 T01500047  RH  050%=      5-min Rain = 0
KSW1 100436Z 19006KT 15/05 A2979 RMK A01 T01500048  RH  050%=      5-min Rain = 0
KSW1 100437Z 19006KT 15/05 A2979 RMK A01 T01500049  RH  051%=      5-min Rain = 0
KSW1 100438Z 19007KT 15/05 A2979 RMK A01 T01510050  RH  051%=      5-min Rain = 0
KSW1 100439Z 19006KT 15/05 A2979 RMK A01 T01510051  RH  051%=      5-min Rain = 0
KSW1 100440Z 19007KT 15/05 A2979 RMK A01 T01510050  RH  051%=      5-min Rain = 0
KSW1 100441Z 19007KT 15/05 A2979 RMK A01 T01490051  RH  052%=      5-min Rain = 0
KSW1 100442Z 20007KT 15/05 A2979 RMK A01 T01490052  RH  052%=      5-min Rain = 0
KSW1 100443Z 19007KT 15/05 A2979 RMK A01 T01490053  RH  053%=      5-min Rain = 0
KSW1 100444Z 19007KT 15/05 A2979 RMK A01 T01490054  RH  053%=      5-min Rain = 0
KSW1 100445Z 19008KT 15/06 A2979 RMK A01 T01480055  RH  053%=      5-min Rain = 0
KSW1 100446Z 19008KT 15/06 A2979 RMK A01 T01480055  RH  054%=      5-min Rain = 0
KSW1 100447Z 19008KT 15/06 A2979 RMK A01 T01490057  RH  054%=      5-min Rain = 0
KSW1 100448Z 19007KT 15/06 A2979 RMK A01 T01500058  RH  054%=      5-min Rain = 0
KSW1 100449Z 19008KT 15/06 A2979 RMK A01 T01500058  RH  054%=      5-min Rain = 0
KSW1 100450Z 19008KT 15/06 A2979 RMK A01 T01500059  RH  054%=      5-min Rain = 0
KSW1 100451Z 19008KT 15/06 A2979 RMK A01 T01510060  RH  055%=      5-min Rain = 0
KSW1 100452Z 19008KT 15/06 A2979 RMK A01 T01510060  RH  055%=      5-min Rain = 0
KSW1 100453Z 19009KT 15/06 A2979 RMK A01 T01510061  RH  055%=      5-min Rain = 0
KSW1 100454Z 19011KT 15/06 A2979 RMK A01 T01520062  RH  055%=      5-min Rain = 0
KSW1 100455Z 19010KT 15/06 A2979 RMK A01 T01530063  RH  055%=      5-min Rain = 0
KSW1 100456Z 19011KT 15/06 A2979 RMK A01 T01540064  RH  055%=      5-min Rain = 0
KSW1 100457Z 19010KT 15/06 A2979 RMK A01 T01540064  RH  055%=      5-min Rain = 0
KSW1 100458Z 19010KT 16/06 A2979 RMK A01 T01550064  RH  055%=      5-min Rain = 0
KSW1 100459Z 19011KT 16/07 A2979 RMK A01 T01550065  RH  055%=      5-min Rain = 0
KSW1 100500Z 19010KT 16/07 A2979 RMK A01 T01550065  RH  055%=      5-min Rain = 0
KSW1 100501Z 19009KT 16/07 A2979 RMK A01 T01550066  RH  055%=      5-min Rain = 0
KSW1 100502Z 19009KT 16/07 A2979 RMK A01 T01550067  RH  056%=      5-min Rain = 0
KSW1 100503Z 19012KT 16/07 A2979 RMK A01 T01550067  RH  056%=      5-min Rain = 0
KSW1 100504Z 19012KT 16/07 A2979 RMK A01 T01550067  RH  056%=      5-min Rain = 0
KSW1 100505Z 19013KT 16/07 A2979 RMK A01 T01550069  RH  056%=      5-min Rain = 0
KSW1 100506Z 19012KT 16/07 A2979 RMK A01 T01570069  RH  056%=      5-min Rain = 0
KSW1 100507Z 19011KT 16/07 A2979 RMK A01 T01580070  RH  056%=      5-min Rain = 0
KSW1 100508Z 19011KT 16/07 A2979 RMK A01 T01590070  RH  055%=      5-min Rain = 0
KSW1 100509Z 19011KT 16/07 A2979 RMK A01 T01580069  RH  055%=      5-min Rain = 0
KSW1 100510Z 19011KT 16/07 A2979 RMK A01 T01580069  RH  056%=      5-min Rain = 0
KSW1 100511Z 19011KT 16/07 A2979 RMK A01 T01570069  RH  056%=      5-min Rain = 0
KSW1 100512Z 19010KT 16/07 A2979 RMK A01 T01560070  RH  056%=      5-min Rain = 0
KSW1 100513Z 19009KT 16/07 A2979 RMK A01 T01550069  RH  056%=      5-min Rain = 0
KSW1 100514Z 20009KT 16/07 A2979 RMK A01 T01550069  RH  057%=      5-min Rain = 0
KSW1 100515Z 19009KT 15/07 A2979 RMK A01 T01540069  RH  057%=      5-min Rain = 0
KSW1 100516Z 19009KT 15/07 A2979 RMK A01 T01540070  RH  057%=      5-min Rain = 0
KSW1 100517Z 19010KT 15/07 A2979 RMK A01 T01540071  RH  058%=      5-min Rain = 0
KSW1 100518Z 19010KT 15/07 A2979 RMK A01 T01530070  RH  058%=      5-min Rain = 0
KSW1 100519Z 19009KT 15/07 A2979 RMK A01 T01520070  RH  058%=      5-min Rain = 0
KSW1 100520Z 19010KT 15/07 A2979 RMK A01 T01510071  RH  059%=      5-min Rain = 0
KSW1 100521Z 19010KT 15/07 A2979 RMK A01 T01510071  RH  059%=      5-min Rain = 0
KSW1 100522Z 19010KT 15/07 A2979 RMK A01 T01490071  RH  059%=      5-min Rain = 0
KSW1 100523Z 19010KT 15/07 A2979 RMK A01 T01490071  RH  060%=      5-min Rain = 0
KSW1 100524Z 19010KT 15/07 A2979 RMK A01 T01490071  RH  060%=      5-min Rain = 0
KSW1 100525Z 19009KT 15/07 A2979 RMK A01 T01490072  RH  060%=      5-min Rain = 0
KSW1 100526Z 19010KT 15/07 A2979 RMK A01 T01500072  RH  060%=      5-min Rain = 0
KSW1 100527Z 19009KT 15/07 A2979 RMK A01 T01500073  RH  060%=      5-min Rain = 0
KSW1 100528Z 20009KT 15/07 A2979 RMK A01 T01500073  RH  060%=      5-min Rain = 0
KSW1 100529Z 20009KT 15/07 A2979 RMK A01 T01510073  RH  060%=      5-min Rain = 0
KSW1 100530Z 19009KT 15/07 A2979 RMK A01 T01510074  RH  060%=      5-min Rain = 0
KSW1 100531Z 20009KT 15/07 A2979 RMK A01 T01510074  RH  060%=      5-min Rain = 0
KSW1 100532Z 20009KT 15/08 A2979 RMK A01 T01510075  RH  060%=      5-min Rain = 0
KSW1 100533Z 20010KT 15/08 A2979 RMK A01 T01520075  RH  060%=      5-min Rain = 0
KSW1 100534Z 20010KT 15/08 A2979 RMK A01 T01520076  RH  060%=      5-min Rain = 0
KSW1 100535Z 20010KT 15/08 A2979 RMK A01 T01530077  RH  060%=      5-min Rain = 0
KSW1 100536Z 20010KT 15/08 A2979 RMK A01 T01530077  RH  060%=      5-min Rain = 0
KSW1 100537Z 20009KT 15/08 A2979 RMK A01 T01540077  RH  060%=      5-min Rain = 0
KSW1 100538Z 20009KT 16/08 A2979 RMK A01 T01550077  RH  060%=      5-min Rain = 0
KSW1 100539Z 20009KT 16/08 A298 RMK A01 T01550078  RH  060%=      5-min Rain = 0
KSW1 100540Z 20009KT 16/08 A298 RMK A01 T01550078  RH  060%=      5-min Rain = 0
KSW1 100541Z 20008KT 16/08 A298 RMK A01 T01550078  RH  060%=      5-min Rain = 0
KSW1 100542Z 20009KT 15/08 A298 RMK A01 T01540077  RH  060%=      5-min Rain = 0
KSW1 100543Z 20009KT 15/08 A298 RMK A01 T01530078  RH  061%=      5-min Rain = 0
KSW1 100544Z 20009KT 15/08 A298 RMK A01 T01530077  RH  061%=      5-min Rain = 0
KSW1 100545Z 20007KT 15/08 A298 RMK A01 T01520078  RH  061%=      5-min Rain = 0
KSW1 100546Z 20008KT 15/08 A298 RMK A01 T01520078  RH  061%=      5-min Rain = 0
KSW1 100547Z 20009KT 15/08 A298 RMK A01 T01520078  RH  061%=      5-min Rain = 0
KSW1 100548Z 20009KT 15/08 A298 RMK A01 T01520078  RH  062%=      5-min Rain = 0
KSW1 100549Z 20008KT 15/08 A298 RMK A01 T01520079  RH  062%=      5-min Rain = 0
KSW1 100550Z 20007KT 15/08 A298 RMK A01 T01520079  RH  062%=      5-min Rain = 0
KSW1 100551Z 20008KT 15/08 A298 RMK A01 T01510078  RH  062%=      5-min Rain = 0
KSW1 100552Z 20008KT 15/08 A298 RMK A01 T01510079  RH  062%=      5-min Rain = 0
KSW1 100553Z 20008KT 15/08 A298 RMK A01 T01510079  RH  062%=      5-min Rain = 0
KSW1 100554Z 20008KT 15/08 A298 RMK A01 T01500079  RH  062%=      5-min Rain = 0
KSW1 100555Z 20009KT 15/08 A298 RMK A01 T01500079  RH  063%=      5-min Rain = 0
KSW1 100556Z 20009KT 15/08 A298 RMK A01 T01510080  RH  063%=      5-min Rain = 0
KSW1 100557Z 20009KT 15/08 A298 RMK A01 T01510080  RH  062%=      5-min Rain = 0
KSW1 100558Z 20009KT 15/08 A298 RMK A01 T01520080  RH  062%=      5-min Rain = 0
KSW1 100559Z 20009KT 15/08 A298 RMK A01 T01510080  RH  062%=      5-min Rain = 0

Page generated in 0.1348 seconds.